Wetterdaten: Sonntag, 29.05.2022
Datum Zeit Temp. Aussen Temp. o. S. Temp +5cm Feuchte Auss Luftdruck Regen Sonnenschein Regendauer Solar Windben Empfang
29.05.2022 00:00 10,6 C 9,4 C 6,1 C 74 % 1019,1 hPa 0,0 l/m 0 min 0 min 0 W/m 3,2 km/h (1 Bft) 91,49 %
29.05.2022 00:02 10,5 C 9,4 C 6,1 C 74 % 1019,0 hPa 0,0 l/m 0 min 0 min 0 W/m 3,2 km/h (1 Bft) 97,06 %
29.05.2022 00:04 10,4 C 9,4 C 6,1 C 75 % 1019,0 hPa 0,0 l/m 0 min 0 min 0 W/m 3,2 km/h (1 Bft) 97,83 %
29.05.2022 00:08 10,4 C 9,4 C 6,1 C 75 % 1018,9 hPa 0,0 l/m 0 min 0 min 0 W/m 6,4 km/h (2 Bft) 96,81 %
29.05.2022 00:10 10,4 C 9,4 C 6,1 C 75 % 1019,0 hPa 0,0 l/m 0 min 0 min 0 W/m 3,2 km/h (1 Bft) 97,87 %
29.05.2022 00:12 10,3 C 9,4 C 6,1 C 76 % 1018,9 hPa 0,0 l/m 0 min 0 min 0 W/m 6,4 km/h (2 Bft) 97,87 %
29.05.2022 00:14 10,3 C 9,4 C 6,1 C 76 % 1018,9 hPa 0,0 l/m 0 min 0 min 0 W/m 9,7 km/h (2 Bft) 97,87 %
29.05.2022 00:16 10,3 C 9,4 C 6,1 C 76 % 1018,9 hPa 0,0 l/m 0 min 0 min 0 W/m 3,2 km/h (1 Bft) 97,83 %
29.05.2022 00:18 10,3 C 9,4 C 6,1 C 76 % 1018,9 hPa 0,0 l/m 0 min 0 min 0 W/m 9,7 km/h (2 Bft) 97,87 %
29.05.2022 00:20 10,2 C 9,4 C 6,1 C 76 % 1018,9 hPa 0,0 l/m 0 min 0 min 0 W/m 6,4 km/h (2 Bft) 95,74 %
29.05.2022 00:22 10,2 C 8,9 C 6,1 C 76 % 1018,9 hPa 0,0 l/m 0 min 0 min 0 W/m 12,9 km/h (3 Bft) 95,74 %
29.05.2022 00:24 10,1 C 8,9 C 6,1 C 76 % 1018,9 hPa 0,0 l/m 0 min 0 min 0 W/m 6,4 km/h (2 Bft) 97,87 %
29.05.2022 00:26 10,1 C 8,9 C 5,6 C 77 % 1018,8 hPa 0,0 l/m 0 min 0 min 0 W/m 3,2 km/h (1 Bft) 95,74 %
29.05.2022 00:28 10,1 C 8,9 C 5,6 C 77 % 1018,8 hPa 0,0 l/m 0 min 0 min 0 W/m 6,4 km/h (2 Bft) 97,83 %
29.05.2022 00:30 10,1 C 8,9 C 5,6 C 77 % 1018,8 hPa 0,0 l/m 0 min 0 min 0 W/m 9,7 km/h (2 Bft) 97,87 %
29.05.2022 00:32 10,0 C 8,9 C 5,6 C 77 % 1018,8 hPa 0,0 l/m 0 min 0 min 0 W/m 12,9 km/h (3 Bft) 97,87 %
29.05.2022 00:34 9,9 C 8,9 C 5,6 C 78 % 1018,8 hPa 0,0 l/m 0 min 0 min 0 W/m 6,4 km/h (2 Bft) 97,87 %
29.05.2022 00:36 9,9 C 8,9 C 5,6 C 78 % 1018,8 hPa 0,0 l/m 0 min 0 min 0 W/m 12,9 km/h (3 Bft) 97,87 %
29.05.2022 00:38 9,9 C 8,9 C 5,6 C 78 % 1018,8 hPa 0,0 l/m 0 min 0 min 0 W/m 6,4 km/h (2 Bft) 97,87 %
29.05.2022 00:40 9,8 C 8,9 C 5,6 C 78 % 1018,8 hPa 0,0 l/m 0 min 0 min 0 W/m 6,4 km/h (2 Bft) 100,00 %
29.05.2022 00:42 9,8 C 8,9 C 5,6 C 78 % 1018,8 hPa 0,0 l/m 0 min 0 min 0 W/m 9,7 km/h (2 Bft) 100,00 %
29.05.2022 00:44 9,8 C 8,9 C 5,6 C 78 % 1018,8 hPa 0,0 l/m 0 min 0 min 0 W/m 6,4 km/h (2 Bft) 100,00 %
29.05.2022 00:46 9,7 C 8,9 C 5,6 C 78 % 1018,7 hPa 0,0 l/m 0 min 0 min 0 W/m 9,7 km/h (2 Bft) 100,00 %
29.05.2022 00:48 9,7 C 8,9 C 5,6 C 78 % 1018,7 hPa 0,0 l/m 0 min 0 min 0 W/m 6,4 km/h (2 Bft) 100,00 %
29.05.2022 00:50 9,7 C 8,3 C 5,6 C 79 % 1018,7 hPa 0,0 l/m 0 min 0 min 0 W/m 6,4 km/h (2 Bft) 97,87 %
29.05.2022 00:52 9,6 C 8,3 C 5,6 C 79 % 1018,7 hPa 0,0 l/m 0 min 0 min 0 W/m 9,7 km/h (2 Bft) 100,00 %
29.05.2022 00:54 9,6 C 8,3 C 5,6 C 79 % 1018,6 hPa 0,0 l/m 0 min 0 min 0 W/m 0,0 km/h (0 Bft) 100,00 %
29.05.2022 00:56 9,6 C 8,3 C 5,6 C 80 % 1018,6 hPa 0,0 l/m 0 min 0 min 0 W/m 3,2 km/h (1 Bft) 100,00 %
29.05.2022 00:58 9,6 C 8,3 C 5,6 C 80 % 1018,6 hPa 0,0 l/m 0 min 0 min 0 W/m 3,2 km/h (1 Bft) 97,87 %
29.05.2022 01:00 9,6 C 8,3 C 5,6 C 80 % 1018,6 hPa 0,0 l/m 0 min 0 min 0 W/m 3,2 km/h (1 Bft) 100,00 %
29.05.2022 01:02 9,5 C 8,3 C 5,6 C 80 % 1018,6 hPa 0,0 l/m 0 min 0 min 0 W/m 6,4 km/h (2 Bft) 95,74 %
29.05.2022 01:04 9,5 C 8,3 C 5,0 C 80 % 1018,6 hPa 0,0 l/m 0 min 0 min 0 W/m 6,4 km/h (2 Bft) 97,83 %
29.05.2022 01:06 9,4 C 8,3 C 5,0 C 80 % 1018,6 hPa 0,0 l/m 0 min 0 min 0 W/m 3,2 km/h (1 Bft) 100,00 %
29.05.2022 01:08 9,4 C 8,3 C 5,6 C 80 % 1018,6 hPa 0,0 l/m 0 min 0 min 0 W/m 6,4 km/h (2 Bft) 100,00 %
29.05.2022 01:10 9,4 C 8,3 C 5,0 C 81 % 1018,5 hPa 0,0 l/m 0 min 0 min 0 W/m 6,4 km/h (2 Bft) 97,87 %
29.05.2022 01:12 9,4 C 8,3 C 5,6 C 81 % 1018,5 hPa 0,0 l/m 0 min 0 min 0 W/m 3,2 km/h (1 Bft) 95,74 %
29.05.2022 01:14 9,3 C 8,3 C 5,0 C 81 % 1018,5 hPa 0,0 l/m 0 min 0 min 0 W/m 6,4 km/h (2 Bft) 97,87 %
29.05.2022 01:16 9,3 C 8,3 C 5,0 C 81 % 1018,5 hPa 0,0 l/m 0 min 0 min 0 W/m 6,4 km/h (2 Bft) 95,65 %
29.05.2022 01:18 9,3 C 8,3 C 5,0 C 81 % 1018,4 hPa 0,0 l/m 0 min 0 min 0 W/m 6,4 km/h (2 Bft) 95,74 %
29.05.2022 01:20 9,2 C 8,3 C 5,0 C 81 % 1018,4 hPa 0,0 l/m 0 min 0 min 0 W/m 3,2 km/h (1 Bft) 97,87 %
29.05.2022 01:22 9,2 C 8,3 C 5,6 C 81 % 1018,4 hPa 0,0 l/m 0 min 0 min 0 W/m 3,2 km/h (1 Bft) 97,87 %
29.05.2022 01:24 9,2 C 8,3 C 5,6 C 82 % 1018,4 hPa 0,0 l/m 0 min 0 min 0 W/m 6,4 km/h (2 Bft) 95,74 %
29.05.2022 01:26 9,2 C 8,3 C 5,0 C 82 % 1018,4 hPa 0,0 l/m 0 min 0 min 0 W/m 6,4 km/h (2 Bft) 97,87 %
29.05.2022 01:28 9,2 C 8,3 C 5,0 C 82 % 1018,4 hPa 0,0 l/m 0 min 0 min 0 W/m 9,7 km/h (2 Bft) 97,83 %
29.05.2022 01:30 9,2 C 8,3 C 5,0 C 82 % 1018,3 hPa 0,0 l/m 0 min 0 min 0 W/m 6,4 km/h (2 Bft) 95,74 %
29.05.2022 01:32 9,2 C 8,3 C 5,0 C 82 % 1018,3 hPa 0,0 l/m 0 min 0 min 0 W/m 3,2 km/h (1 Bft) 93,62 %
29.05.2022 01:34 9,1 C 8,3 C 5,6 C 82 % 1018,3 hPa 0,0 l/m 0 min 0 min 0 W/m 3,2 km/h (1 Bft) 97,87 %
29.05.2022 01:36 9,1 C 8,3 C 5,6 C 82 % 1018,2 hPa 0,0 l/m 0 min 0 min 0 W/m 0,0 km/h (0 Bft) 97,87 %
29.05.2022 01:38 9,1 C 8,3 C 5,0 C 83 % 1018,2 hPa 0,0 l/m 0 min 0 min 0 W/m 3,2 km/h (1 Bft) 97,87 %
29.05.2022 01:40 9,1 C 8,3 C 5,0 C 83 % 1018,1 hPa 0,0 l/m 0 min 0 min 0 W/m 3,2 km/h (1 Bft) 100,00 %
29.05.2022 01:42 9,1 C 7,8 C 5,0 C 83 % 1018,1 hPa 0,0 l/m 0 min 0 min 0 W/m 3,2 km/h (1 Bft) 100,00 %
29.05.2022 01:44 9,1 C 7,8 C 5,0 C 83 % 1018,1 hPa 0,0 l/m 0 min 0 min 0 W/m 0,0 km/h (0 Bft) 97,87 %
29.05.2022 01:46 9,1 C 7,8 C 5,0 C 83 % 1018,1 hPa 0,0 l/m 0 min 0 min 0 W/m 3,2 km/h (1 Bft) 97,87 %
29.05.2022 01:48 9,1 C 7,8 C 5,0 C 83 % 1018,1 hPa 0,0 l/m 0 min 0 min 0 W/m 3,2 km/h (1 Bft) 97,87 %
29.05.2022 01:50 9,1 C 7,8 C 5,0 C 83 % 1018,0 hPa 0,0 l/m 0 min 0 min 0 W/m 0,0 km/h (0 Bft) 97,87 %
29.05.2022 01:52 9,1 C 7,8 C 5,0 C 83 % 1018,1 hPa 0,0 l/m 0 min 0 min 0 W/m 0,0 km/h (0 Bft) 97,83 %
29.05.2022 01:54 9,1 C 7,8 C 5,0 C 83 % 1018,0 hPa 0,0 l/m 0 min 0 min 0 W/m 0,0 km/h (0 Bft) 97,87 %
29.05.2022 01:56 9,0 C 7,8 C 5,0 C 83 % 1018,0 hPa 0,0 l/m 0 min 0 min 0 W/m 0,0 km/h (0 Bft) 97,87 %
29.05.2022 01:58 9,0 C 7,8 C 5,0 C 83 % 1018,0 hPa 0,0 l/m 0 min 0 min 0 W/m 0,0 km/h (0 Bft) 97,87 %
29.05.2022 02:00 9,0 C 7,8 C 5,0 C 84 % 1017,9 hPa 0,0 l/m 0 min 0 min 0 W/m 3,2 km/h (1 Bft) 97,87 %
29.05.2022 02:02 8,9 C 7,8 C 5,0 C 84 % 1017,9 hPa 0,0 l/m 0 min 0 min 0 W/m 0,0 km/h (0 Bft) 95,74 %
29.05.2022 02:04 8,9 C 7,8 C 5,0 C 84 % 1017,9 hPa 0,0 l/m 0 min 0 min 0 W/m 0,0 km/h (0 Bft) 97,83 %
29.05.2022 02:06 8,9 C 7,8 C 5,0 C 84 % 1017,9 hPa 0,0 l/m 0 min 0 min 0 W/m 3,2 km/h (1 Bft) 97,87 %
29.05.2022 02:08 8,8 C 7,8 C 5,0 C 84 % 1017,9 hPa 0,0 l/m 0 min 0 min 0 W/m 0,0 km/h (0 Bft) 97,87 %
29.05.2022 02:10 8,8 C 7,8 C 5,0 C 84 % 1017,8 hPa 0,0 l/m 0 min 0 min 0 W/m 0,0 km/h (0 Bft) 97,87 %
29.05.2022 02:12 8,8 C 7,8 C 5,0 C 84 % 1017,8 hPa 0,0 l/m 0 min 0 min 0 W/m 3,2 km/h (1 Bft) 97,87 %
29.05.2022 02:14 8,8 C 7,8 C 5,0 C 84 % 1017,8 hPa 0,0 l/m 0 min 0 min 0 W/m 0,0 km/h (0 Bft) 97,83 %
29.05.2022 02:16 8,8 C 7,8 C 5,0 C 84 % 1017,9 hPa 0,0 l/m 0 min 0 min 0 W/m 3,2 km/h (1 Bft) 95,74 %
29.05.2022 02:18 8,7 C 7,8 C 5,0 C 84 % 1017,8 hPa 0,0 l/m 0 min 0 min 0 W/m 6,4 km/h (2 Bft) 97,87 %
29.05.2022 02:20 8,7 C 7,8 C 5,0 C 84 % 1017,9 hPa 0,0 l/m 0 min 0 min 0 W/m 6,4 km/h (2 Bft) 97,87 %
29.05.2022 02:22 8,7 C 7,8 C 5,0 C 84 % 1017,8 hPa 0,0 l/m 0 min 0 min 0 W/m 3,2 km/h (1 Bft) 97,87 %
29.05.2022 02:24 8,7 C 7,8 C 5,0 C 85 % 1017,8 hPa 0,0 l/m 0 min 0 min 0 W/m 3,2 km/h (1 Bft) 100,00 %
29.05.2022 02:26 8,7 C 7,8 C 5,0 C 85 % 1017,8 hPa 0,0 l/m 0 min 0 min 0 W/m 3,2 km/h (1 Bft) 97,83 %
29.05.2022 02:28 8,7 C 7,8 C 5,0 C 85 % 1017,8 hPa 0,0 l/m 0 min 0 min 0 W/m 3,2 km/h (1 Bft) 100,00 %
29.05.2022 02:30 8,6 C 7,8 C 5,0 C 85 % 1017,8 hPa 0,0 l/m 0 min 0 min 0 W/m 3,2 km/h (1 Bft) 100,00 %
29.05.2022 02:32 8,6 C 7,8 C 5,0 C 85 % 1017,8 hPa 0,0 l/m 0 min 0 min 0 W/m 0,0 km/h (0 Bft) 100,00 %
29.05.2022 02:34 8,6 C 7,8 C 5,0 C 85 % 1017,8 hPa 0,0 l/m 0 min 0 min 0 W/m 0,0 km/h (0 Bft) 100,00 %
29.05.2022 02:36 8,6 C 7,8 C 5,0 C 85 % 1017,7 hPa 0,0 l/m 0 min 0 min 0 W/m 3,2 km/h (1 Bft) 97,87 %
29.05.2022 02:38 8,6 C 7,2 C 5,0 C 85 % 1017,7 hPa 0,0 l/m 0 min 0 min 0 W/m 0,0 km/h (0 Bft) 100,00 %
29.05.2022 02:40 8,5 C 7,2 C 4,4 C 85 % 1017,7 hPa 0,0 l/m 0 min 0 min 0 W/m 0,0 km/h (0 Bft) 100,00 %
29.05.2022 02:42 8,5 C 7,2 C 4,4 C 85 % 1017,7 hPa 0,0 l/m 0 min 0 min 0 W/m 3,2 km/h (1 Bft) 100,00 %
29.05.2022 02:44 8,4 C 7,2 C 4,4 C 85 % 1017,7 hPa 0,0 l/m 0 min 0 min 0 W/m 3,2 km/h (1 Bft) 95,74 %
29.05.2022 02:46 8,4 C 7,2 C 4,4 C 86 % 1017,7 hPa 0,0 l/m 0 min 0 min 0 W/m 3,2 km/h (1 Bft) 97,87 %
29.05.2022 02:48 8,4 C 7,2 C 4,4 C 86 % 1017,7 hPa 0,0 l/m 0 min 0 min 0 W/m 3,2 km/h (1 Bft) 97,87 %
29.05.2022 02:50 8,4 C 7,2 C 4,4 C 86 % 1017,7 hPa 0,0 l/m 0 min 0 min 0 W/m 3,2 km/h (1 Bft) 97,87 %
29.05.2022 02:52 8,3 C 7,2 C 4,4 C 86 % 1017,6 hPa 0,0 l/m 0 min 0 min 0 W/m 3,2 km/h (1 Bft) 95,65 %
29.05.2022 02:54 8,3 C 7,2 C 4,4 C 86 % 1017,6 hPa 0,0 l/m 0 min 0 min 0 W/m 6,4 km/h (2 Bft) 97,87 %
29.05.2022 02:56 8,3 C 7,2 C 4,4 C 86 % 1017,6 hPa 0,0 l/m 0 min 0 min 0 W/m 3,2 km/h (1 Bft) 97,87 %
29.05.2022 02:58 8,3 C 7,2 C 4,4 C 86 % 1017,6 hPa 0,0 l/m 0 min 0 min 0 W/m 3,2 km/h (1 Bft) 97,87 %
29.05.2022 03:00 8,2 C 7,2 C 4,4 C 86 % 1017,6 hPa 0,0 l/m 0 min 0 min 0 W/m 3,2 km/h (1 Bft) 97,87 %
29.05.2022 03:02 8,2 C 7,2 C 4,4 C 86 % 1017,6 hPa 0,0 l/m 0 min 0 min 0 W/m 3,2 km/h (1 Bft) 97,83 %
29.05.2022 03:04 8,2 C 7,2 C 4,4 C 86 % 1017,5 hPa 0,0 l/m 0 min 0 min 0 W/m 3,2 km/h (1 Bft) 97,87 %
29.05.2022 03:06 8,2 C 7,2 C 4,4 C 86 % 1017,5 hPa 0,0 l/m 0 min 0 min 0 W/m 3,2 km/h (1 Bft) 100,00 %
29.05.2022 03:08 8,2 C 7,2 C 4,4 C 86 % 1017,5 hPa 0,0 l/m 0 min 0 min 0 W/m 3,2 km/h (1 Bft) 100,00 %
29.05.2022 03:10 8,2 C 7,2 C 4,4 C 87 % 1017,6 hPa 0,0 l/m 0 min 0 min 0 W/m 0,0 km/h (0 Bft) 95,74 %
29.05.2022 03:12 8,1 C 7,2 C 4,4 C 87 % 1017,5 hPa 0,0 l/m 0 min 0 min 0 W/m 0,0 km/h (0 Bft) 100,00 %
29.05.2022 03:14 8,1 C 7,2 C 4,4 C 87 % 1017,5 hPa 0,0 l/m 0 min 0 min 0 W/m 0,0 km/h (0 Bft) 100,00 %
29.05.2022 03:16 8,1 C 7,2 C 4,4 C 87 % 1017,5 hPa 0,0 l/m 0 min 0 min 0 W/m 3,2 km/h (1 Bft) 100,00 %
29.05.2022 03:18 8,1 C 7,2 C 4,4 C 87 % 1017,5 hPa 0,0 l/m 0 min 0 min 0 W/m 3,2 km/h (1 Bft) 100,00 %
29.05.2022 03:20 8,0 C 6,7 C 4,4 C 87 % 1017,5 hPa 0,0 l/m 0 min 0 min 0 W/m 0,0 km/h (0 Bft) 100,00 %
29.05.2022 03:22 8,0 C 6,7 C 4,4 C 87 % 1017,5 hPa 0,0 l/m 0 min 0 min 0 W/m 3,2 km/h (1 Bft) 100,00 %
29.05.2022 03:24 8,0 C 6,7 C 3,9 C 87 % 1017,5 hPa 0,0 l/m 0 min 0 min 0 W/m 0,0 km/h (0 Bft) 100,00 %
29.05.2022 03:26 7,9 C 6,7 C 4,4 C 87 % 1017,4 hPa 0,0 l/m 0 min 0 min 0 W/m 0,0 km/h (0 Bft) 100,00 %
29.05.2022 03:28 7,9 C 6,7 C 3,9 C 87 % 1017,5 hPa 0,0 l/m 0 min 0 min 0 W/m 0,0 km/h (0 Bft) 100,00 %
29.05.2022 03:30 7,9 C 6,7 C 3,9 C 87 % 1017,5 hPa 0,0 l/m 0 min 0 min 0 W/m 0,0 km/h (0 Bft) 100,00 %
29.05.2022 03:32 7,9 C 6,7 C 3,9 C 88 % 1017,4 hPa 0,0 l/m 0 min 0 min 0 W/m 0,0 km/h (0 Bft) 100,00 %
29.05.2022 03:34 7,9 C 6,7 C 3,9 C 88 % 1017,4 hPa 0,0 l/m 0 min 0 min 0 W/m 0,0 km/h (0 Bft) 100,00 %
29.05.2022 03:36 7,9 C 6,7 C 4,4 C 88 % 1017,4 hPa 0,0 l/m 0 min 0 min 0 W/m 0,0 km/h (0 Bft) 97,87 %
29.05.2022 03:38 7,9 C 7,2 C 4,4 C 88 % 1017,5 hPa 0,0 l/m 0 min 0 min 0 W/m 3,2 km/h (1 Bft) 100,00 %
29.05.2022 03:40 7,9 C 7,2 C 4,4 C 88 % 1017,5 hPa 0,0 l/m 0 min 0 min 0 W/m 0,0 km/h (0 Bft) 100,00 %
29.05.2022 03:42 7,9 C 7,2 C 4,4 C 88 % 1017,5 hPa 0,0 l/m 0 min 0 min 0 W/m 3,2 km/h (1 Bft) 100,00 %
29.05.2022 03:44 7,9 C 7,2 C 4,4 C 88 % 1017,4 hPa 0,0 l/m 0 min 0 min 0 W/m 0,0 km/h (0 Bft) 100,00 %
29.05.2022 03:46 7,9 C 7,2 C 4,4 C 88 % 1017,4 hPa 0,0 l/m 0 min 0 min 0 W/m 0,0 km/h (0 Bft) 95,74 %
29.05.2022 03:48 7,9 C 7,2 C 4,4 C 88 % 1017,4 hPa 0,0 l/m 0 min 0 min 0 W/m 0,0 km/h (0 Bft) 97,87 %
29.05.2022 03:50 7,9 C 6,7 C 3,9 C 88 % 1017,4 hPa 0,0 l/m 0 min 0 min 0 W/m 0,0 km/h (0 Bft) 95,65 %
29.05.2022 03:52 7,9 C 6,7 C 3,9 C 88 % 1017,3 hPa 0,0 l/m 0 min 0 min 0 W/m 3,2 km/h (1 Bft) 93,62 %
29.05.2022 03:54 7,9 C 6,7 C 4,4 C 88 % 1017,3 hPa 0,0 l/m 0 min 0 min 0 W/m 0,0 km/h (0 Bft) 97,87 %
29.05.2022 03:56 7,9 C 6,7 C 4,4 C 88 % 1017,3 hPa 0,0 l/m 0 min 0 min 0 W/m 0,0 km/h (0 Bft) 93,62 %
29.05.2022 03:58 7,9 C 7,2 C 4,4 C 88 % 1017,2 hPa 0,0 l/m 0 min 0 min 0 W/m 0,0 km/h (0 Bft) 97,87 %
29.05.2022 04:00 7,9 C 7,2 C 4,4 C 89 % 1017,2 hPa 0,0 l/m 0 min 0 min 0 W/m 0,0 km/h (0 Bft) 93,62 %
29.05.2022 04:02 7,9 C 7,2 C 4,4 C 89 % 1017,2 hPa 0,0 l/m 0 min 0 min 0 W/m 0,0 km/h (0 Bft) 100,00 %
29.05.2022 04:04 7,9 C 7,2 C 4,4 C 89 % 1017,2 hPa 0,0 l/m 0 min 0 min 0 W/m 0,0 km/h (0 Bft) 97,87 %
29.05.2022 04:06 7,9 C 7,2 C 4,4 C 89 % 1017,2 hPa 0,0 l/m 0 min 0 min 0 W/m 3,2 km/h (1 Bft) 95,74 %
29.05.2022 04:08 7,9 C 7,2 C 4,4 C 89 % 1017,1 hPa 0,0 l/m 0 min 0 min 0 W/m 0,0 km/h (0 Bft) 97,87 %
29.05.2022 04:10 7,9 C 7,2 C 4,4 C 89 % 1017,1 hPa 0,0 l/m 0 min 0 min 0 W/m 0,0 km/h (0 Bft) 94,55 %
29.05.2022 04:12 7,9 C 7,2 C 4,4 C 89 % 1017,1 hPa 0,0 l/m 0 min 0 min 0 W/m 0,0 km/h (0 Bft) 89,13 %
29.05.2022 04:14 7,9 C 7,2 C 4,4 C 89 % 1017,1 hPa 0,0 l/m 0 min 0 min 0 W/m 0,0 km/h (0 Bft) 93,62 %
29.05.2022 04:16 7,9 C 7,2 C 4,4 C 89 % 1017,1 hPa 0,0 l/m 0 min 0 min 0 W/m 0,0 km/h (0 Bft) 93,62 %
29.05.2022 04:18 7,9 C 7,2 C 4,4 C 89 % 1017,2 hPa 0,0 l/m 0 min 0 min 0 W/m 0,0 km/h (0 Bft) 93,62 %
29.05.2022 04:20 7,9 C 7,2 C 4,4 C 89 % 1017,1 hPa 0,0 l/m 0 min 0 min 0 W/m 0,0 km/h (0 Bft) 93,62 %
29.05.2022 04:22 7,9 C 7,2 C 4,4 C 89 % 1017,1 hPa 0,0 l/m 0 min 0 min 0 W/m 0,0 km/h (0 Bft) 87,23 %
29.05.2022 04:24 8,0 C 7,2 C 4,4 C 89 % 1017,1 hPa 0,0 l/m 0 min 0 min 0 W/m 3,2 km/h (1 Bft) 91,30 %
29.05.2022 04:26 8,0 C 7,2 C 4,4 C 89 % 1017,0 hPa 0,0 l/m 0 min 0 min 0 W/m 3,2 km/h (1 Bft) 93,62 %
29.05.2022 04:28 8,1 C 7,2 C 4,4 C 89 % 1017,0 hPa 0,0 l/m 0 min 0 min 0 W/m 3,2 km/h (1 Bft) 93,62 %
29.05.2022 04:30 8,1 C 7,2 C 4,4 C 89 % 1017,0 hPa 0,0 l/m 0 min 0 min 0 W/m 0,0 km/h (0 Bft) 93,62 %
29.05.2022 04:32 8,1 C 7,2 C 4,4 C 89 % 1017,0 hPa 0,0 l/m 0 min 0 min 0 W/m 0,0 km/h (0 Bft) 91,49 %
29.05.2022 04:34 8,1 C 7,2 C 4,4 C 89 % 1017,0 hPa 0,0 l/m 0 min 0 min 0 W/m 3,2 km/h (1 Bft) 93,48 %
29.05.2022 04:36 8,1 C 7,2 C 4,4 C 89 % 1017,0 hPa 0,0 l/m 0 min 0 min 0 W/m 3,2 km/h (1 Bft) 89,36 %
29.05.2022 04:38 8,1 C 7,2 C 4,4 C 89 % 1017,0 hPa 0,0 l/m 0 min 0 min 0 W/m 0,0 km/h (0 Bft) 95,74 %
29.05.2022 04:40 8,1 C 7,2 C 4,4 C 89 % 1017,0 hPa 0,0 l/m 0 min 0 min 0 W/m 3,2 km/h (1 Bft) 95,74 %
29.05.2022 04:42 8,1 C 7,2 C 4,4 C 89 % 1017,0 hPa 0,0 l/m 0 min 0 min 0 W/m 0,0 km/h (0 Bft) 97,87 %
29.05.2022 04:44 8,0 C 7,2 C 4,4 C 89 % 1016,9 hPa 0,0 l/m 0 min 0 min 0 W/m 3,2 km/h (1 Bft) 97,87 %
29.05.2022 04:46 8,0 C 7,2 C 4,4 C 89 % 1016,9 hPa 0,0 l/m 0 min 0 min 0 W/m 3,2 km/h (1 Bft) 95,74 %
29.05.2022 04:48 8,0 C 7,2 C 4,4 C 89 % 1016,9 hPa 0,0 l/m 0 min 0 min 0 W/m 3,2 km/h (1 Bft) 97,83 %
29.05.2022 04:50 7,9 C 7,2 C 4,4 C 89 % 1016,9 hPa 0,0 l/m 0 min 0 min 0 W/m 3,2 km/h (1 Bft) 95,74 %
29.05.2022 04:52 7,9 C 7,2 C 4,4 C 89 % 1016,9 hPa 0,0 l/m 0 min 0 min 0 W/m 3,2 km/h (1 Bft) 97,87 %
29.05.2022 04:54 7,9 C 7,2 C 4,4 C 89 % 1016,9 hPa 0,0 l/m 0 min 0 min 0 W/m 3,2 km/h (1 Bft) 97,87 %
29.05.2022 04:56 7,9 C 6,7 C 4,4 C 89 % 1016,9 hPa 0,0 l/m 0 min 0 min 0 W/m 0,0 km/h (0 Bft) 97,87 %
29.05.2022 04:58 7,9 C 7,2 C 4,4 C 89 % 1016,9 hPa 0,0 l/m 0 min 0 min 0 W/m 0,0 km/h (0 Bft) 100,00 %
29.05.2022 05:00 7,9 C 6,7 C 4,4 C 89 % 1016,8 hPa 0,0 l/m 0 min 0 min 0 W/m 0,0 km/h (0 Bft) 100,00 %
29.05.2022 05:02 7,8 C 6,7 C 3,9 C 89 % 1016,8 hPa 0,0 l/m 0 min 0 min 0 W/m 0,0 km/h (0 Bft) 100,00 %
29.05.2022 05:04 7,8 C 6,7 C 3,9 C 89 % 1016,8 hPa 0,0 l/m 0 min 0 min 0 W/m 0,0 km/h (0 Bft) 100,00 %
29.05.2022 05:06 7,8 C 6,7 C 3,9 C 89 % 1016,8 hPa 0,0 l/m 0 min 0 min 0 W/m 0,0 km/h (0 Bft) 100,00 %
29.05.2022 05:08 7,8 C 6,7 C 3,9 C 89 % 1016,8 hPa 0,0 l/m 0 min 0 min 0 W/m 3,2 km/h (1 Bft) 100,00 %
29.05.2022 05:10 7,8 C 6,7 C 3,9 C 89 % 1016,8 hPa 0,0 l/m 0 min 0 min 0 W/m 3,2 km/h (1 Bft) 100,00 %
29.05.2022 05:12 7,8 C 6,7 C 3,9 C 89 % 1016,8 hPa 0,0 l/m 0 min 0 min 0 W/m 0,0 km/h (0 Bft) 63,04 %
29.05.2022 05:14 7,8 C 6,7 C 3,9 C 89 % 1016,8 hPa 0,0 l/m 0 min 0 min 0 W/m 0,0 km/h (0 Bft) 92,86 %
29.05.2022 05:16 7,8 C 6,7 C 4,4 C 89 % 1016,8 hPa 0,0 l/m 0 min 0 min 0 W/m 3,2 km/h (1 Bft) 100,00 %
29.05.2022 05:18 7,8 C 6,7 C 3,9 C 89 % 1016,8 hPa 0,0 l/m 0 min 0 min 0 W/m 3,2 km/h (1 Bft) 100,00 %
29.05.2022 05:20 7,8 C 6,7 C 3,9 C 89 % 1016,8 hPa 0,0 l/m 0 min 0 min 0 W/m 3,2 km/h (1 Bft) 97,87 %
29.05.2022 05:22 7,8 C 6,7 C 3,9 C 89 % 1016,8 hPa 0,0 l/m 0 min 0 min 0 W/m 0,0 km/h (0 Bft) 100,00 %
29.05.2022 05:24 7,8 C 7,2 C 4,4 C 89 % 1016,8 hPa 0,0 l/m 0 min 0 min 0 W/m 0,0 km/h (0 Bft) 100,00 %
29.05.2022 05:26 7,8 C 7,2 C 4,4 C 90 % 1016,8 hPa 0,0 l/m 0 min 0 min 0 W/m 3,2 km/h (1 Bft) 100,00 %
29.05.2022 05:28 7,8 C 7,2 C 4,4 C 90 % 1016,8 hPa 0,0 l/m 0 min 0 min 0 W/m 0,0 km/h (0 Bft) 100,00 %
29.05.2022 05:30 7,8 C 7,2 C 4,4 C 90 % 1016,8 hPa 0,0 l/m 0 min 0 min 0 W/m 3,2 km/h (1 Bft) 100,00 %
29.05.2022 05:32 7,9 C 7,2 C 4,4 C 90 % 1016,8 hPa 0,0 l/m 0 min 0 min 3 W/m 3,2 km/h (1 Bft) 100,00 %
29.05.2022 05:34 7,9 C 7,2 C 4,4 C 90 % 1016,8 hPa 0,0 l/m 0 min 0 min 5 W/m 3,2 km/h (1 Bft) 100,00 %
29.05.2022 05:36 7,9 C 7,2 C 4,4 C 90 % 1016,8 hPa 0,0 l/m 0 min 0 min 5 W/m 3,2 km/h (1 Bft) 97,87 %
29.05.2022 05:38 7,9 C 7,2 C 4,4 C 90 % 1016,8 hPa 0,0 l/m 0 min 0 min 6 W/m 3,2 km/h (1 Bft) 100,00 %
29.05.2022 05:40 8,0 C 7,2 C 4,4 C 90 % 1016,8 hPa 0,0 l/m 0 min 0 min 7 W/m 3,2 km/h (1 Bft) 100,00 %
29.05.2022 05:42 8,1 C 7,8 C 4,4 C 90 % 1016,8 hPa 0,0 l/m 0 min 0 min 7 W/m 3,2 km/h (1 Bft) 95,74 %
29.05.2022 05:44 8,1 C 7,8 C 5,0 C 90 % 1016,7 hPa 0,0 l/m 0 min 0 min 9 W/m 3,2 km/h (1 Bft) 100,00 %
29.05.2022 05:46 8,1 C 7,8 C 5,0 C 90 % 1016,8 hPa 0,0 l/m 0 min 0 min 9 W/m 3,2 km/h (1 Bft) 100,00 %
29.05.2022 05:48 8,1 C 7,8 C 5,0 C 90 % 1016,8 hPa 0,0 l/m 0 min 0 min 9 W/m 3,2 km/h (1 Bft) 95,74 %
29.05.2022 05:50 8,1 C 7,8 C 5,0 C 90 % 1016,7 hPa 0,0 l/m 0 min 0 min 7 W/m 3,2 km/h (1 Bft) 97,87 %
29.05.2022 05:52 8,2 C 7,8 C 5,0 C 91 % 1016,7 hPa 0,0 l/m 0 min 0 min 8 W/m 3,2 km/h (1 Bft) 97,87 %
29.05.2022 05:54 8,2 C 7,8 C 5,0 C 91 % 1016,7 hPa 0,0 l/m 0 min 0 min 9 W/m 3,2 km/h (1 Bft) 97,87 %
29.05.2022 05:56 8,2 C 7,8 C 5,0 C 91 % 1016,7 hPa 0,0 l/m 0 min 0 min 10 W/m 3,2 km/h (1 Bft) 97,87 %
29.05.2022 05:58 8,2 C 7,8 C 5,0 C 91 % 1016,7 hPa 0,0 l/m 0 min 0 min 11 W/m 3,2 km/h (1 Bft) 93,48 %
29.05.2022 06:00 8,2 C 7,8 C 5,0 C 91 % 1016,7 hPa 0,0 l/m 0 min 0 min 12 W/m 3,2 km/h (1 Bft) 97,87 %
29.05.2022 06:02 8,2 C 7,8 C 5,0 C 91 % 1016,7 hPa 0,0 l/m 0 min 0 min 12 W/m 3,2 km/h (1 Bft) 97,87 %
29.05.2022 06:04 8,2 C 7,8 C 5,0 C 91 % 1016,7 hPa 0,0 l/m 0 min 0 min 13 W/m 6,4 km/h (2 Bft) 95,74 %
29.05.2022 06:08 8,3 C 7,8 C 5,0 C 91 % 1016,6 hPa 0,0 l/m 0 min 0 min 15 W/m 3,2 km/h (1 Bft) 97,92 %
29.05.2022 06:10 8,3 C 8,3 C 5,0 C 91 % 1016,6 hPa 0,0 l/m 0 min 0 min 16 W/m 0,0 km/h (0 Bft) 97,83 %
29.05.2022 06:12 8,3 C 8,3 C 5,0 C 91 % 1016,6 hPa 0,0 l/m 0 min 0 min 16 W/m 3,2 km/h (1 Bft) 97,87 %
29.05.2022 06:14 8,4 C 8,3 C 5,0 C 90 % 1016,6 hPa 0,0 l/m 0 min 0 min 16 W/m 3,2 km/h (1 Bft) 95,74 %
29.05.2022 06:16 8,4 C 7,8 C 5,0 C 90 % 1016,6 hPa 0,0 l/m 0 min 0 min 16 W/m 6,4 km/h (2 Bft) 100,00 %
29.05.2022 06:18 8,4 C 7,8 C 5,0 C 90 % 1016,6 hPa 0,0 l/m 0 min 0 min 18 W/m 3,2 km/h (1 Bft) 100,00 %
29.05.2022 06:20 8,4 C 8,3 C 5,0 C 90 % 1016,6 hPa 0,0 l/m 0 min 0 min 21 W/m 3,2 km/h (1 Bft) 100,00 %
29.05.2022 06:22 8,4 C 8,3 C 5,6 C 90 % 1016,5 hPa 0,0 l/m 0 min 0 min 25 W/m 3,2 km/h (1 Bft) 93,48 %
29.05.2022 06:24 8,5 C 8,3 C 5,6 C 90 % 1016,5 hPa 0,0 l/m 0 min 0 min 30 W/m 3,2 km/h (1 Bft) 97,87 %
29.05.2022 06:26 8,5 C 8,3 C 5,0 C 90 % 1016,5 hPa 0,0 l/m 0 min 0 min 33 W/m 0,0 km/h (0 Bft) 97,87 %
29.05.2022 06:28 8,6 C 8,3 C 5,6 C 91 % 1016,5 hPa 0,0 l/m 0 min 0 min 36 W/m 0,0 km/h (0 Bft) 97,87 %
29.05.2022 06:30 8,6 C 8,3 C 5,6 C 91 % 1016,5 hPa 0,0 l/m 0 min 0 min 37 W/m 3,2 km/h (1 Bft) 100,00 %
29.05.2022 06:32 8,6 C 8,3 C 5,6 C 91 % 1016,5 hPa 0,0 l/m 0 min 0 min 38 W/m 6,4 km/h (2 Bft) 97,87 %
29.05.2022 06:34 8,6 C 8,3 C 5,6 C 90 % 1016,6 hPa 0,0 l/m 0 min 0 min 39 W/m 6,4 km/h (2 Bft) 97,83 %
29.05.2022 06:36 8,6 C 8,3 C 5,6 C 90 % 1016,5 hPa 0,0 l/m 0 min 0 min 39 W/m 3,2 km/h (1 Bft) 97,87 %
29.05.2022 06:38 8,7 C 8,3 C 5,6 C 90 % 1016,5 hPa 0,0 l/m 0 min 0 min 39 W/m 6,4 km/h (2 Bft) 97,87 %
29.05.2022 06:40 8,7 C 8,3 C 5,6 C 90 % 1016,5 hPa 0,0 l/m 0 min 0 min 40 W/m 6,4 km/h (2 Bft) 95,74 %
29.05.2022 06:42 8,7 C 8,3 C 5,6 C 90 % 1016,5 hPa 0,0 l/m 0 min 0 min 42 W/m 3,2 km/h (1 Bft) 97,87 %
29.05.2022 06:44 8,7 C 8,3 C 5,6 C 90 % 1016,5 hPa 0,0 l/m 0 min 0 min 46 W/m 6,4 km/h (2 Bft) 97,83 %
29.05.2022 06:46 8,7 C 8,3 C 5,6 C 90 % 1016,5 hPa 0,0 l/m 0 min 0 min 51 W/m 6,4 km/h (2 Bft) 93,62 %
29.05.2022 06:48 8,7 C 8,3 C 5,6 C 90 % 1016,5 hPa 0,0 l/m 0 min 0 min 59 W/m 3,2 km/h (1 Bft) 97,87 %
29.05.2022 06:50 8,8 C 8,3 C 5,6 C 90 % 1016,4 hPa 0,0 l/m 0 min 0 min 63 W/m 3,2 km/h (1 Bft) 97,87 %
29.05.2022 06:52 8,8 C 8,9 C 5,6 C 90 % 1016,4 hPa 0,0 l/m 0 min 0 min 62 W/m 3,2 km/h (1 Bft) 97,87 %
29.05.2022 06:57 8,9 C 8,9 C 5,6 C 90 % 1016,3 hPa 0,0 l/m 0 min 0 min 56 W/m 6,4 km/h (2 Bft) 98,44 %
29.05.2022 06:58 8,9 C 8,9 C 5,6 C 90 % 1016,3 hPa 0,0 l/m 0 min 0 min 51 W/m 3,2 km/h (1 Bft) 95,65 %
29.05.2022 07:00 8,9 C 8,9 C 5,6 C 91 % 1016,4 hPa 0,0 l/m 0 min 0 min 48 W/m 3,2 km/h (1 Bft) 100,00 %
29.05.2022 07:02 9,0 C 8,9 C 5,6 C 91 % 1016,3 hPa 0,0 l/m 0 min 2 min 44 W/m 6,4 km/h (2 Bft) 97,87 %
29.05.2022 07:04 9,0 C 8,9 C 5,0 C 91 % 1016,3 hPa 0,0 l/m 0 min 2 min 40 W/m 3,2 km/h (1 Bft) 100,00 %
29.05.2022 07:06 9,1 C 8,9 C 5,0 C 91 % 1016,3 hPa 0,0 l/m 0 min 2 min 46 W/m 3,2 km/h (1 Bft) 100,00 %
29.05.2022 07:08 9,1 C 8,9 C 5,0 C 91 % 1016,3 hPa 0,0 l/m 0 min 2 min 54 W/m 3,2 km/h (1 Bft) 100,00 %
29.05.2022 07:10 9,2 C 8,9 C 5,0 C 91 % 1016,3 hPa 0,0 l/m 0 min 0 min 63 W/m 3,2 km/h (1 Bft) 100,00 %
29.05.2022 07:12 9,2 C 8,9 C 5,0 C 91 % 1016,3 hPa 0,0 l/m 0 min 0 min 63 W/m 3,2 km/h (1 Bft) 100,00 %
29.05.2022 07:14 9,2 C 8,9 C 5,6 C 92 % 1016,3 hPa 0,0 l/m 0 min 0 min 60 W/m 3,2 km/h (1 Bft) 100,00 %
29.05.2022 07:16 9,2 C 8,9 C 5,6 C 92 % 1016,3 hPa 0,0 l/m 0 min 0 min 60 W/m 3,2 km/h (1 Bft) 100,00 %
29.05.2022 07:18 9,2 C 8,9 C 5,6 C 92 % 1016,2 hPa 0,0 l/m 0 min 0 min 60 W/m 3,2 km/h (1 Bft) 100,00 %
29.05.2022 07:20 9,2 C 8,9 C 5,0 C 92 % 1016,2 hPa 0,0 l/m 0 min 0 min 58 W/m 3,2 km/h (1 Bft) 100,00 %
29.05.2022 07:22 9,2 C 8,9 C 5,0 C 92 % 1016,2 hPa 0,0 l/m 0 min 0 min 55 W/m 3,2 km/h (1 Bft) 100,00 %
29.05.2022 07:24 9,2 C 8,9 C 5,0 C 92 % 1016,2 hPa 0,0 l/m 0 min 0 min 54 W/m 6,4 km/h (2 Bft) 100,00 %
29.05.2022 07:26 9,2 C 8,9 C 5,0 C 92 % 1016,3 hPa 0,0 l/m 0 min 0 min 53 W/m 3,2 km/h (1 Bft) 95,74 %
29.05.2022 07:28 9,2 C 8,9 C 5,0 C 92 % 1016,2 hPa 0,0 l/m 0 min 0 min 54 W/m 6,4 km/h (2 Bft) 100,00 %
29.05.2022 07:30 9,2 C 8,9 C 5,6 C 92 % 1016,2 hPa 0,0 l/m 0 min 0 min 60 W/m 3,2 km/h (1 Bft) 100,00 %
29.05.2022 07:32 9,2 C 8,9 C 5,6 C 92 % 1016,2 hPa 0,0 l/m 0 min 0 min 67 W/m 6,4 km/h (2 Bft) 93,48 %
29.05.2022 07:34 9,3 C 8,9 C 5,6 C 92 % 1016,2 hPa 0,0 l/m 0 min 0 min 72 W/m 3,2 km/h (1 Bft) 95,74 %
29.05.2022 07:36 9,3 C 8,9 C 5,6 C 92 % 1016,2 hPa 0,0 l/m 0 min 0 min 67 W/m 6,4 km/h (2 Bft) 95,74 %
29.05.2022 07:38 9,3 C 8,9 C 5,6 C 92 % 1016,2 hPa 0,0 l/m 0 min 0 min 60 W/m 6,4 km/h (2 Bft) 95,74 %
29.05.2022 07:40 9,3 C 8,9 C 5,6 C 92 % 1016,2 hPa 0,0 l/m 0 min 0 min 58 W/m 3,2 km/h (1 Bft) 95,74 %
29.05.2022 07:42 9,3 C 8,9 C 5,6 C 92 % 1016,2 hPa 0,0 l/m 0 min 0 min 62 W/m 3,2 km/h (1 Bft) 91,49 %
29.05.2022 07:44 9,3 C 8,9 C 5,6 C 92 % 1016,2 hPa 0,0 l/m 0 min 0 min 65 W/m 3,2 km/h (1 Bft) 95,74 %
29.05.2022 07:46 9,3 C 8,9 C 5,6 C 93 % 1016,2 hPa 0,0 l/m 0 min 0 min 70 W/m 9,7 km/h (2 Bft) 95,83 %
29.05.2022 07:48 9,3 C 8,9 C 5,6 C 93 % 1016,3 hPa 0,0 l/m 0 min 0 min 79 W/m 3,2 km/h (1 Bft) 93,62 %
29.05.2022 07:50 9,3 C 9,4 C 5,6 C 93 % 1016,3 hPa 0,0 l/m 0 min 0 min 88 W/m 3,2 km/h (1 Bft) 95,74 %
29.05.2022 07:52 9,4 C 9,4 C 5,6 C 93 % 1016,3 hPa 0,0 l/m 0 min 0 min 91 W/m 6,4 km/h (2 Bft) 95,74 %
29.05.2022 07:54 9,4 C 9,4 C 6,1 C 93 % 1016,2 hPa 0,0 l/m 0 min 0 min 91 W/m 6,4 km/h (2 Bft) 95,74 %
29.05.2022 07:56 9,4 C 9,4 C 5,6 C 93 % 1016,3 hPa 0,0 l/m 0 min 2 min 88 W/m 6,4 km/h (2 Bft) 95,65 %
29.05.2022 07:58 9,4 C 9,4 C 5,6 C 93 % 1016,3 hPa 0,0 l/m 0 min 2 min 85 W/m 6,4 km/h (2 Bft) 95,74 %
29.05.2022 08:00 9,5 C 9,4 C 5,6 C 93 % 1016,2 hPa 0,2 l/m 0 min 2 min 83 W/m 3,2 km/h (1 Bft) 97,87 %
29.05.2022 08:02 9,5 C 9,4 C 5,6 C 93 % 1016,3 hPa 0,0 l/m 0 min 2 min 76 W/m 6,4 km/h (2 Bft) 95,74 %
29.05.2022 08:04 9,5 C 8,9 C 5,6 C 93 % 1016,2 hPa 0,0 l/m 0 min 0 min 73 W/m 3,2 km/h (1 Bft) 91,49 %
29.05.2022 08:06 9,5 C 8,9 C 5,6 C 93 % 1016,3 hPa 0,0 l/m 0 min 0 min 71 W/m 9,7 km/h (2 Bft) 95,74 %
29.05.2022 08:08 9,4 C 8,9 C 5,6 C 93 % 1016,3 hPa 0,0 l/m 0 min 0 min 71 W/m 6,4 km/h (2 Bft) 97,83 %
29.05.2022 08:10 9,4 C 8,9 C 5,6 C 93 % 1016,3 hPa 0,0 l/m 0 min 0 min 80 W/m 6,4 km/h (2 Bft) 95,74 %
29.05.2022 08:12 9,4 C 9,4 C 5,6 C 93 % 1016,3 hPa 0,0 l/m 0 min 0 min 90 W/m 6,4 km/h (2 Bft) 97,87 %
29.05.2022 08:16 9,4 C 9,4 C 5,6 C 93 % 1016,3 hPa 0,0 l/m 0 min 0 min 110 W/m 6,4 km/h (2 Bft) 96,88 %
29.05.2022 08:18 9,4 C 9,4 C 5,6 C 93 % 1016,3 hPa 0,0 l/m 0 min 0 min 113 W/m 6,4 km/h (2 Bft) 97,87 %
29.05.2022 08:20 9,4 C 9,4 C 5,6 C 93 % 1016,2 hPa 0,0 l/m 0 min 0 min 121 W/m 9,7 km/h (2 Bft) 97,83 %
29.05.2022 08:22 9,4 C 9,4 C 6,1 C 93 % 1016,2 hPa 0,0 l/m 0 min 0 min 128 W/m 6,4 km/h (2 Bft) 97,87 %
29.05.2022 08:24 9,5 C 9,4 C 6,1 C 93 % 1016,2 hPa 0,0 l/m 0 min 0 min 134 W/m 6,4 km/h (2 Bft) 97,87 %
29.05.2022 08:26 9,5 C 9,4 C 6,1 C 93 % 1016,2 hPa 0,0 l/m 0 min 0 min 142 W/m 6,4 km/h (2 Bft) 97,87 %
29.05.2022 08:28 9,5 C 9,4 C 6,1 C 93 % 1016,2 hPa 0,0 l/m 0 min 0 min 160 W/m 9,7 km/h (2 Bft) 100,00 %
29.05.2022 08:30 9,5 C 10,0 C 6,1 C 93 % 1016,2 hPa 0,0 l/m 0 min 0 min 168 W/m 6,4 km/h (2 Bft) 100,00 %
29.05.2022 08:32 9,5 C 10,0 C 6,1 C 93 % 1016,2 hPa 0,0 l/m 0 min 0 min 169 W/m 6,4 km/h (2 Bft) 100,00 %
29.05.2022 08:34 9,6 C 10,0 C 6,7 C 94 % 1016,2 hPa 0,0 l/m 2 min 0 min 222 W/m 6,4 km/h (2 Bft) 100,00 %
29.05.2022 08:36 9,6 C 10,6 C 6,7 C 94 % 1016,2 hPa 0,0 l/m 2 min 0 min 249 W/m 6,4 km/h (2 Bft) 97,87 %
29.05.2022 08:38 9,7 C 10,6 C 6,7 C 94 % 1016,2 hPa 0,0 l/m 0 min 0 min 174 W/m 12,9 km/h (3 Bft) 100,00 %
29.05.2022 08:40 9,7 C 10,6 C 6,7 C 93 % 1016,2 hPa 0,0 l/m 0 min 0 min 161 W/m 6,4 km/h (2 Bft) 100,00 %
29.05.2022 08:42 9,7 C 10,6 C 6,7 C 93 % 1016,2 hPa 0,0 l/m 0 min 0 min 155 W/m 6,4 km/h (2 Bft) 97,83 %
29.05.2022 08:44 9,7 C 10,6 C 6,7 C 93 % 1016,2 hPa 0,0 l/m 0 min 0 min 163 W/m 6,4 km/h (2 Bft) 100,00 %
29.05.2022 08:46 9,7 C 10,6 C 6,7 C 93 % 1016,2 hPa 0,0 l/m 0 min 0 min 183 W/m 6,4 km/h (2 Bft) 97,87 %
29.05.2022 08:48 9,8 C 10,6 C 7,2 C 93 % 1016,2 hPa 0,0 l/m 2 min 0 min 232 W/m 6,4 km/h (2 Bft) 100,00 %
29.05.2022 08:50 9,8 C 10,6 C 7,2 C 93 % 1016,3 hPa 0,0 l/m 0 min 0 min 209 W/m 9,7 km/h (2 Bft) 97,87 %
29.05.2022 08:52 9,9 C 11,1 C 7,2 C 94 % 1016,2 hPa 0,0 l/m 0 min 0 min 220 W/m 9,7 km/h (2 Bft) 95,74 %
29.05.2022 08:54 10,0 C 11,1 C 7,2 C 94 % 1016,2 hPa 0,0 l/m 0 min 0 min 215 W/m 9,7 km/h (2 Bft) 100,00 %
29.05.2022 08:56 10,0 C 10,6 C 7,2 C 93 % 1016,3 hPa 0,0 l/m 0 min 0 min 206 W/m 6,4 km/h (2 Bft) 100,00 %
29.05.2022 08:58 10,0 C 10,6 C 7,2 C 93 % 1016,2 hPa 0,0 l/m 0 min 0 min 206 W/m 9,7 km/h (2 Bft) 100,00 %
29.05.2022 09:00 10,1 C 10,6 C 7,2 C 93 % 1016,2 hPa 0,0 l/m 0 min 0 min 180 W/m 6,4 km/h (2 Bft) 97,87 %
29.05.2022 09:02 10,1 C 10,6 C 7,2 C 93 % 1016,2 hPa 0,0 l/m 0 min 0 min 178 W/m 6,4 km/h (2 Bft) 97,87 %
29.05.2022 09:04 10,1 C 10,6 C 7,2 C 93 % 1016,2 hPa 0,0 l/m 0 min 0 min 175 W/m 6,4 km/h (2 Bft) 100,00 %
29.05.2022 09:06 10,1 C 10,6 C 7,2 C 93 % 1016,2 hPa 0,0 l/m 0 min 0 min 178 W/m 6,4 km/h (2 Bft) 97,83 %
29.05.2022 09:08 10,2 C 10,6 C 7,2 C 93 % 1016,3 hPa 0,0 l/m 0 min 0 min 177 W/m 12,9 km/h (3 Bft) 97,87 %
29.05.2022 09:10 10,2 C 10,6 C 7,2 C 93 % 1016,2 hPa 0,0 l/m 0 min 0 min 180 W/m 12,9 km/h (3 Bft) 95,74 %
29.05.2022 09:12 10,2 C 10,6 C 7,2 C 93 % 1016,2 hPa 0,0 l/m 0 min 0 min 182 W/m 6,4 km/h (2 Bft) 97,87 %
29.05.2022 09:14 10,2 C 10,6 C 7,2 C 92 % 1016,2 hPa 0,0 l/m 0 min 0 min 188 W/m 6,4 km/h (2 Bft) 95,74 %
29.05.2022 09:16 10,2 C 11,1 C 7,2 C 92 % 1016,2 hPa 0,0 l/m 0 min 0 min 247 W/m 3,2 km/h (1 Bft) 97,87 %
29.05.2022 09:18 10,3 C 11,7 C 7,8 C 92 % 1016,2 hPa 0,0 l/m 2 min 0 min 348 W/m 9,7 km/h (2 Bft) 97,83 %
29.05.2022 09:20 10,3 C 11,7 C 7,8 C 92 % 1016,2 hPa 0,0 l/m 2 min 0 min 335 W/m 9,7 km/h (2 Bft) 95,74 %
29.05.2022 09:22 10,4 C 12,2 C 7,8 C 92 % 1016,2 hPa 0,0 l/m 2 min 0 min 353 W/m 9,7 km/h (2 Bft) 95,74 %
29.05.2022 09:24 10,4 C 12,2 C 8,3 C 92 % 1016,2 hPa 0,0 l/m 2 min 0 min 366 W/m 9,7 km/h (2 Bft) 95,74 %
29.05.2022 09:26 10,6 C 12,8 C 8,9 C 92 % 1016,2 hPa 0,0 l/m 2 min 0 min 420 W/m 9,7 km/h (2 Bft) 96,00 %
29.05.2022 09:28 10,7 C 13,9 C 8,9 C 92 % 1016,1 hPa 0,0 l/m 2 min 0 min 481 W/m 12,9 km/h (3 Bft) 95,74 %
29.05.2022 09:30 10,8 C 13,9 C 9,4 C 92 % 1016,1 hPa 0,0 l/m 2 min 0 min 362 W/m 16,1 km/h (3 Bft) 95,65 %
29.05.2022 09:32 10,9 C 13,3 C 9,4 C 91 % 1016,1 hPa 0,0 l/m 2 min 0 min 287 W/m 12,9 km/h (3 Bft) 95,92 %
29.05.2022 09:34 10,9 C 12,8 C 8,9 C 91 % 1016,1 hPa 0,0 l/m 0 min 0 min 240 W/m 12,9 km/h (3 Bft) 95,74 %
29.05.2022 09:36 10,9 C 12,2 C 8,9 C 90 % 1016,1 hPa 0,0 l/m 0 min 0 min 229 W/m 9,7 km/h (2 Bft) 95,74 %
29.05.2022 09:38 10,9 C 12,2 C 8,9 C 90 % 1016,1 hPa 0,0 l/m 0 min 0 min 222 W/m 3,2 km/h (1 Bft) 95,74 %
29.05.2022 09:40 11,0 C 12,2 C 8,9 C 90 % 1016,1 hPa 0,0 l/m 0 min 0 min 220 W/m 6,4 km/h (2 Bft) 95,74 %
29.05.2022 09:42 11,0 C 12,2 C 8,3 C 89 % 1016,1 hPa 0,0 l/m 0 min 0 min 276 W/m 9,7 km/h (2 Bft) 93,48 %
29.05.2022 09:44 11,0 C 12,2 C 8,3 C 89 % 1016,1 hPa 0,0 l/m 0 min 0 min 262 W/m 12,9 km/h (3 Bft) 95,74 %
29.05.2022 09:46 11,0 C 11,7 C 8,3 C 89 % 1016,1 hPa 0,0 l/m 0 min 0 min 277 W/m 12,9 km/h (3 Bft) 95,74 %
29.05.2022 09:48 11,1 C 12,2 C 8,3 C 88 % 1016,2 hPa 0,0 l/m 0 min 0 min 251 W/m 9,7 km/h (2 Bft) 97,87 %
29.05.2022 09:50 11,1 C 12,2 C 8,3 C 88 % 1016,1 hPa 0,0 l/m 0 min 0 min 252 W/m 12,9 km/h (3 Bft) 95,74 %
29.05.2022 09:52 11,1 C 12,2 C 8,3 C 88 % 1016,1 hPa 0,0 l/m 0 min 0 min 278 W/m 9,7 km/h (2 Bft) 95,74 %
29.05.2022 09:54 11,1 C 12,2 C 8,3 C 88 % 1016,2 hPa 0,0 l/m 2 min 0 min 312 W/m 16,1 km/h (3 Bft) 95,65 %
29.05.2022 09:56 11,2 C 12,2 C 8,9 C 88 % 1016,2 hPa 0,0 l/m 2 min 0 min 341 W/m 12,9 km/h (3 Bft) 97,87 %
29.05.2022 09:58 11,2 C 12,2 C 8,9 C 87 % 1016,1 hPa 0,0 l/m 0 min 0 min 293 W/m 9,7 km/h (2 Bft) 97,87 %
29.05.2022 10:00 11,2 C 12,2 C 8,9 C 87 % 1016,1 hPa 0,0 l/m 0 min 0 min 294 W/m 6,4 km/h (2 Bft) 95,74 %
29.05.2022 10:02 11,3 C 12,8 C 8,9 C 87 % 1016,0 hPa 0,0 l/m 0 min 0 min 309 W/m 6,4 km/h (2 Bft) 97,87 %
29.05.2022 10:04 11,4 C 13,9 C 10,0 C 87 % 1016,0 hPa 0,0 l/m 2 min 0 min 475 W/m 19,3 km/h (3 Bft) 97,87 %
29.05.2022 10:06 11,6 C 15,6 C 11,1 C 87 % 1016,0 hPa 0,0 l/m 2 min 0 min 697 W/m 12,9 km/h (3 Bft) 97,83 %
29.05.2022 10:08 11,8 C 16,7 C 12,2 C 87 % 1016,0 hPa 0,0 l/m 2 min 0 min 696 W/m 6,4 km/h (2 Bft) 97,87 %
29.05.2022 10:10 12,1 C 16,1 C 11,7 C 86 % 1015,9 hPa 0,0 l/m 2 min 0 min 527 W/m 9,7 km/h (2 Bft) 97,14 %
29.05.2022 10:12 12,2 C 15,0 C 11,1 C 86 % 1016,0 hPa 0,0 l/m 0 min 0 min 225 W/m 16,1 km/h (3 Bft) 96,61 %
29.05.2022 10:14 12,3 C 13,9 C 10,0 C 84 % 1015,9 hPa 0,0 l/m 0 min 0 min 153 W/m 12,9 km/h (3 Bft) 97,87 %
29.05.2022 10:16 12,2 C 13,3 C 10,0 C 83 % 1016,0 hPa 0,0 l/m 0 min 0 min 157 W/m 9,7 km/h (2 Bft) 95,74 %
29.05.2022 10:18 12,2 C 12,8 C 9,4 C 83 % 1015,9 hPa 0,0 l/m 0 min 0 min 170 W/m 9,7 km/h (2 Bft) 97,14 %
29.05.2022 10:20 12,2 C 12,8 C 9,4 C 83 % 1015,9 hPa 0,0 l/m 0 min 0 min 170 W/m 6,4 km/h (2 Bft) 98,28 %
29.05.2022 10:22 12,2 C 12,2 C 9,4 C 83 % 1015,9 hPa 0,0 l/m 0 min 0 min 164 W/m 6,4 km/h (2 Bft) 100,00 %
29.05.2022 10:24 12,2 C 12,2 C 8,9 C 83 % 1015,9 hPa 0,0 l/m 0 min 0 min 159 W/m 12,9 km/h (3 Bft) 95,74 %
29.05.2022 10:26 12,1 C 12,2 C 8,9 C 84 % 1015,9 hPa 0,0 l/m 0 min 0 min 152 W/m 6,4 km/h (2 Bft) 97,87 %
29.05.2022 10:28 12,1 C 11,7 C 8,3 C 84 % 1015,9 hPa 0,0 l/m 0 min 0 min 135 W/m 9,7 km/h (2 Bft) 100,00 %
29.05.2022 10:30 12,1 C 11,7 C 8,3 C 84 % 1015,8 hPa 0,0 l/m 0 min 2 min 109 W/m 3,2 km/h (1 Bft) 95,74 %
29.05.2022 10:32 12,0 C 11,7 C 7,8 C 84 % 1015,8 hPa 0,0 l/m 0 min 2 min 92 W/m 6,4 km/h (2 Bft) 96,55 %
29.05.2022 10:34 11,9 C 11,1 C 7,2 C 84 % 1015,8 hPa 0,0 l/m 0 min 2 min 83 W/m 9,7 km/h (2 Bft) 97,87 %
29.05.2022 10:36 11,8 C 10,6 C 7,2 C 84 % 1015,8 hPa 0,2 l/m 0 min 2 min 77 W/m 6,4 km/h (2 Bft) 97,87 %
29.05.2022 10:38 11,8 C 10,0 C 6,7 C 85 % 1015,8 hPa 0,2 l/m 0 min 2 min 92 W/m 3,2 km/h (1 Bft) 97,87 %
29.05.2022 10:40 11,7 C 10,0 C 6,7 C 85 % 1015,8 hPa 0,0 l/m 0 min 2 min 140 W/m 3,2 km/h (1 Bft) 97,87 %
29.05.2022 10:42 11,7 C 10,6 C 7,2 C 86 % 1015,7 hPa 0,0 l/m 0 min 0 min 211 W/m 3,2 km/h (1 Bft) 97,14 %
29.05.2022 10:44 11,7 C 10,6 C 7,2 C 87 % 1015,7 hPa 0,0 l/m 0 min 0 min 277 W/m 6,4 km/h (2 Bft) 96,55 %
29.05.2022 10:46 11,7 C 10,6 C 7,2 C 87 % 1015,7 hPa 0,0 l/m 0 min 0 min 226 W/m 6,4 km/h (2 Bft) 97,87 %
29.05.2022 10:48 11,7 C 11,1 C 7,2 C 87 % 1015,8 hPa 0,0 l/m 0 min 0 min 218 W/m 6,4 km/h (2 Bft) 97,87 %
29.05.2022 10:50 11,7 C 11,1 C 7,2 C 87 % 1015,8 hPa 0,0 l/m 0 min 2 min 223 W/m 9,7 km/h (2 Bft) 94,29 %
29.05.2022 10:52 11,7 C 11,1 C 6,7 C 87 % 1015,8 hPa 0,0 l/m 0 min 2 min 216 W/m 9,7 km/h (2 Bft) 97,87 %
29.05.2022 10:54 11,7 C 11,1 C 6,7 C 87 % 1015,8 hPa 0,0 l/m 0 min 2 min 194 W/m 6,4 km/h (2 Bft) 97,87 %
29.05.2022 10:56 11,7 C 11,1 C 6,7 C 87 % 1015,7 hPa 0,0 l/m 0 min 0 min 176 W/m 3,2 km/h (1 Bft) 97,83 %
29.05.2022 10:58 11,7 C 11,7 C 6,7 C 88 % 1015,8 hPa 0,0 l/m 0 min 0 min 175 W/m 12,9 km/h (3 Bft) 96,61 %
29.05.2022 11:00 11,7 C 11,7 C 6,7 C 87 % 1015,7 hPa 0,0 l/m 0 min 0 min 216 W/m 9,7 km/h (2 Bft) 95,74 %
29.05.2022 11:02 11,7 C 11,7 C 6,7 C 87 % 1015,8 hPa 0,0 l/m 0 min 0 min 233 W/m 9,7 km/h (2 Bft) 100,00 %
29.05.2022 11:04 11,6 C 11,7 C 6,7 C 87 % 1015,7 hPa 0,0 l/m 0 min 0 min 246 W/m 12,9 km/h (3 Bft) 96,61 %
29.05.2022 11:06 11,6 C 11,7 C 7,2 C 87 % 1015,7 hPa 0,0 l/m 0 min 0 min 290 W/m 3,2 km/h (1 Bft) 97,83 %
29.05.2022 11:08 11,7 C 12,2 C 7,2 C 87 % 1015,7 hPa 0,0 l/m 0 min 0 min 314 W/m 3,2 km/h (1 Bft) 97,22 %
29.05.2022 11:10 11,7 C 12,2 C 7,8 C 87 % 1015,6 hPa 0,0 l/m 0 min 0 min 311 W/m 3,2 km/h (1 Bft) 93,48 %
29.05.2022 11:12 11,8 C 12,2 C 7,2 C 88 % 1015,7 hPa 0,0 l/m 0 min 0 min 270 W/m 6,4 km/h (2 Bft) 95,74 %
29.05.2022 11:14 11,8 C 12,2 C 7,2 C 87 % 1015,7 hPa 0,0 l/m 0 min 0 min 171 W/m 9,7 km/h (2 Bft) 98,21 %
29.05.2022 11:16 11,8 C 12,2 C 7,2 C 87 % 1015,7 hPa 0,0 l/m 0 min 2 min 82 W/m 3,2 km/h (1 Bft) 100,00 %
29.05.2022 11:18 11,8 C 11,7 C 7,2 C 87 % 1015,8 hPa 0,2 l/m 0 min 2 min 64 W/m 6,4 km/h (2 Bft) 95,74 %
29.05.2022 11:20 11,8 C 11,7 C 6,7 C 87 % 1015,8 hPa 0,0 l/m 0 min 2 min 75 W/m 9,7 km/h (2 Bft) 97,87 %
29.05.2022 11:22 11,8 C 11,1 C 6,7 C 87 % 1015,8 hPa 0,2 l/m 0 min 2 min 109 W/m 9,7 km/h (2 Bft) 95,74 %
29.05.2022 11:24 11,8 C 10,6 C 6,7 C 87 % 1015,8 hPa 0,0 l/m 0 min 2 min 135 W/m 6,4 km/h (2 Bft) 97,87 %
29.05.2022 11:26 11,7 C 10,6 C 6,7 C 87 % 1015,7 hPa 0,0 l/m 0 min 0 min 132 W/m 6,4 km/h (2 Bft) 95,74 %
29.05.2022 11:28 11,6 C 10,6 C 6,7 C 87 % 1015,8 hPa 0,0 l/m 0 min 2 min 127 W/m 9,7 km/h (2 Bft) 97,83 %
29.05.2022 11:30 11,5 C 10,6 C 6,1 C 88 % 1015,7 hPa 0,0 l/m 0 min 2 min 139 W/m 9,7 km/h (2 Bft) 97,87 %
29.05.2022 11:32 11,4 C 10,6 C 6,7 C 88 % 1015,6 hPa 0,0 l/m 0 min 2 min 152 W/m 6,4 km/h (2 Bft) 97,87 %
29.05.2022 11:34 11,4 C 10,6 C 6,7 C 88 % 1015,6 hPa 0,0 l/m 0 min 0 min 167 W/m 3,2 km/h (1 Bft) 97,87 %
29.05.2022 11:36 11,4 C 10,6 C 6,7 C 89 % 1015,6 hPa 0,0 l/m 0 min 2 min 196 W/m 9,7 km/h (2 Bft) 97,87 %
29.05.2022 11:38 11,4 C 11,1 C 6,7 C 89 % 1015,6 hPa 0,0 l/m 0 min 0 min 246 W/m 6,4 km/h (2 Bft) 97,87 %
29.05.2022 11:40 11,4 C 11,7 C 7,2 C 89 % 1015,6 hPa 0,0 l/m 0 min 0 min 310 W/m 6,4 km/h (2 Bft) 97,83 %
29.05.2022 11:42 11,4 C 12,2 C 7,8 C 90 % 1015,6 hPa 0,0 l/m 0 min 0 min 322 W/m 6,4 km/h (2 Bft) 97,87 %
29.05.2022 11:44 11,6 C 13,9 C 8,3 C 90 % 1015,6 hPa 0,0 l/m 2 min 0 min 653 W/m 3,2 km/h (1 Bft) 97,87 %
29.05.2022 11:46 11,8 C 13,9 C 8,9 C 91 % 1015,5 hPa 0,0 l/m 2 min 0 min 1079 W/m 9,7 km/h (2 Bft) 97,87 %
29.05.2022 11:48 11,9 C 13,9 C 8,3 C 90 % 1015,6 hPa 0,0 l/m 2 min 0 min 560 W/m 9,7 km/h (2 Bft) 100,00 %
29.05.2022 11:50 11,9 C 13,9 C 8,3 C 90 % 1015,6 hPa 0,0 l/m 2 min 0 min 493 W/m 9,7 km/h (2 Bft) 100,00 %
29.05.2022 11:52 12,1 C 15,0 C 8,9 C 90 % 1015,5 hPa 0,0 l/m 2 min 0 min 916 W/m 6,4 km/h (2 Bft) 100,00 %
29.05.2022 11:54 12,2 C 15,6 C 9,4 C 90 % 1015,6 hPa 0,0 l/m 2 min 0 min 1013 W/m 9,7 km/h (2 Bft) 100,00 %
29.05.2022 11:56 12,4 C 15,6 C 10,0 C 90 % 1015,5 hPa 0,0 l/m 2 min 0 min 884 W/m 9,7 km/h (2 Bft) 97,87 %
29.05.2022 11:58 12,5 C 15,6 C 10,6 C 90 % 1015,5 hPa 0,0 l/m 2 min 0 min 805 W/m 9,7 km/h (2 Bft) 100,00 %
29.05.2022 12:00 12,7 C 15,6 C 10,6 C 89 % 1015,5 hPa 0,0 l/m 2 min 0 min 441 W/m 9,7 km/h (2 Bft) 97,87 %
29.05.2022 12:02 12,8 C 15,6 C 11,1 C 89 % 1015,5 hPa 0,0 l/m 2 min 0 min 509 W/m 9,7 km/h (2 Bft) 100,00 %
29.05.2022 12:04 12,9 C 15,6 C 11,1 C 87 % 1015,5 hPa 0,0 l/m 2 min 0 min 510 W/m 12,9 km/h (3 Bft) 100,00 %
29.05.2022 12:08 13,1 C 15,0 C 11,1 C 85 % 1015,4 hPa 0,0 l/m 4 min 0 min 591 W/m 25,7 km/h (4 Bft) 100,00 %
29.05.2022 12:10 13,2 C 15,0 C 12,2 C 84 % 1015,5 hPa 0,0 l/m 2 min 0 min 461 W/m 22,5 km/h (4 Bft) 100,00 %
29.05.2022 12:12 13,3 C 15,0 C 12,2 C 83 % 1015,4 hPa 0,0 l/m 2 min 0 min 461 W/m 12,9 km/h (3 Bft) 100,00 %
29.05.2022 12:14 13,3 C 14,4 C 11,1 C 83 % 1015,5 hPa 0,0 l/m 0 min 0 min 265 W/m 25,7 km/h (4 Bft) 97,87 %
29.05.2022 12:16 13,2 C 13,3 C 10,0 C 83 % 1015,5 hPa 0,0 l/m 0 min 0 min 212 W/m 25,7 km/h (4 Bft) 97,87 %
29.05.2022 12:18 13,2 C 12,8 C 10,0 C 82 % 1015,5 hPa 0,0 l/m 0 min 0 min 218 W/m 19,3 km/h (3 Bft) 100,00 %
29.05.2022 12:20 13,0 C 12,8 C 9,4 C 82 % 1015,5 hPa 0,0 l/m 0 min 0 min 253 W/m 19,3 km/h (3 Bft) 100,00 %
29.05.2022 12:22 12,8 C 12,8 C 9,4 C 82 % 1015,5 hPa 0,0 l/m 0 min 0 min 301 W/m 12,9 km/h (3 Bft) 100,00 %
29.05.2022 12:24 12,7 C 12,8 C 9,4 C 83 % 1015,4 hPa 0,0 l/m 0 min 2 min 349 W/m 16,1 km/h (3 Bft) 97,87 %
29.05.2022 12:26 12,6 C 12,8 C 9,4 C 84 % 1015,5 hPa 0,0 l/m 0 min 2 min 406 W/m 12,9 km/h (3 Bft) 100,00 %
29.05.2022 12:28 12,6 C 12,8 C 9,4 C 84 % 1015,5 hPa 0,0 l/m 2 min 2 min 460 W/m 16,1 km/h (3 Bft) 100,00 %
29.05.2022 12:30 12,6 C 12,8 C 9,4 C 85 % 1015,4 hPa 0,0 l/m 0 min 0 min 390 W/m 19,3 km/h (3 Bft) 100,00 %
29.05.2022 12:32 12,5 C 12,8 C 9,4 C 85 % 1015,4 hPa 0,0 l/m 2 min 0 min 420 W/m 9,7 km/h (2 Bft) 100,00 %
29.05.2022 12:34 12,6 C 13,3 C 10,6 C 85 % 1015,4 hPa 0,0 l/m 2 min 0 min 517 W/m 9,7 km/h (2 Bft) 97,87 %
29.05.2022 12:36 12,6 C 14,4 C 12,8 C 85 % 1015,4 hPa 0,0 l/m 2 min 0 min 687 W/m 12,9 km/h (3 Bft) 96,61 %
29.05.2022 12:38 12,7 C 15,0 C 12,8 C 85 % 1015,4 hPa 0,0 l/m 2 min 0 min 672 W/m 19,3 km/h (3 Bft) 94,29 %
29.05.2022 12:40 12,8 C 15,0 C 12,2 C 85 % 1015,4 hPa 0,0 l/m 2 min 0 min 500 W/m 12,9 km/h (3 Bft) 97,87 %
29.05.2022 12:42 12,9 C 14,4 C 11,7 C 83 % 1015,4 hPa 0,0 l/m 0 min 0 min 382 W/m 16,1 km/h (3 Bft) 95,74 %
29.05.2022 12:44 12,9 C 14,4 C 11,1 C 82 % 1015,3 hPa 0,0 l/m 0 min 0 min 318 W/m 6,4 km/h (2 Bft) 97,83 %
29.05.2022 12:46 12,9 C 13,9 C 10,6 C 82 % 1015,4 hPa 0,0 l/m 0 min 0 min 261 W/m 9,7 km/h (2 Bft) 97,87 %
29.05.2022 12:48 12,9 C 13,3 C 10,0 C 81 % 1015,4 hPa 0,0 l/m 0 min 0 min 237 W/m 16,1 km/h (3 Bft) 97,87 %
29.05.2022 12:50 12,8 C 13,3 C 9,4 C 82 % 1015,4 hPa 0,0 l/m 0 min 0 min 243 W/m 16,1 km/h (3 Bft) 97,87 %
29.05.2022 12:52 12,8 C 12,8 C 9,4 C 82 % 1015,3 hPa 0,0 l/m 0 min 0 min 262 W/m 6,4 km/h (2 Bft) 97,87 %
29.05.2022 12:54 12,8 C 12,8 C 9,4 C 83 % 1015,3 hPa 0,0 l/m 0 min 0 min 300 W/m 6,4 km/h (2 Bft) 97,87 %
29.05.2022 12:56 12,8 C 13,3 C 10,0 C 84 % 1015,3 hPa 0,0 l/m 0 min 0 min 389 W/m 6,4 km/h (2 Bft) 97,83 %
29.05.2022 12:58 12,8 C 14,4 C 12,2 C 85 % 1015,3 hPa 0,0 l/m 0 min 0 min 415 W/m 6,4 km/h (2 Bft) 97,87 %
29.05.2022 13:00 12,9 C 15,0 C 12,8 C 86 % 1015,2 hPa 0,0 l/m 2 min 0 min 470 W/m 9,7 km/h (2 Bft) 95,74 %
29.05.2022 13:02 13,1 C 15,6 C 14,4 C 85 % 1015,2 hPa 0,0 l/m 2 min 0 min 990 W/m 19,3 km/h (3 Bft) 97,87 %
29.05.2022 13:04 13,3 C 16,1 C 16,1 C 84 % 1015,2 hPa 0,0 l/m 2 min 0 min 862 W/m 9,7 km/h (2 Bft) 95,74 %
29.05.2022 13:06 13,5 C 16,7 C 16,1 C 83 % 1015,2 hPa 0,0 l/m 2 min 0 min 958 W/m 12,9 km/h (3 Bft) 95,74 %
29.05.2022 13:08 13,6 C 16,7 C 15,0 C 82 % 1015,2 hPa 0,0 l/m 2 min 0 min 571 W/m 6,4 km/h (2 Bft) 95,65 %
29.05.2022 13:10 13,7 C 16,7 C 14,4 C 82 % 1015,2 hPa 0,0 l/m 2 min 0 min 568 W/m 9,7 km/h (2 Bft) 95,74 %
29.05.2022 13:12 13,9 C 16,1 C 13,9 C 81 % 1015,2 hPa 0,0 l/m 2 min 0 min 539 W/m 6,4 km/h (2 Bft) 93,62 %
29.05.2022 13:14 14,0 C 16,7 C 14,4 C 81 % 1015,2 hPa 0,0 l/m 2 min 0 min 774 W/m 6,4 km/h (2 Bft) 95,74 %
29.05.2022 13:16 14,3 C 17,2 C 15,6 C 80 % 1015,1 hPa 0,0 l/m 2 min 0 min 860 W/m 12,9 km/h (3 Bft) 93,62 %
29.05.2022 13:18 14,3 C 17,8 C 16,7 C 80 % 1015,1 hPa 0,0 l/m 2 min 0 min 786 W/m 9,7 km/h (2 Bft) 97,87 %
29.05.2022 13:20 14,5 C 17,8 C 17,2 C 78 % 1015,1 hPa 0,0 l/m 2 min 0 min 1184 W/m 16,1 km/h (3 Bft) 93,48 %
29.05.2022 13:22 14,7 C 17,8 C 16,1 C 77 % 1015,0 hPa 0,0 l/m 2 min 0 min 1179 W/m 9,7 km/h (2 Bft) 91,49 %
29.05.2022 13:24 14,8 C 17,2 C 15,0 C 77 % 1015,0 hPa 0,0 l/m 2 min 0 min 456 W/m 9,7 km/h (2 Bft) 93,62 %
29.05.2022 13:26 14,8 C 16,7 C 13,9 C 77 % 1015,0 hPa 0,0 l/m 0 min 0 min 252 W/m 16,1 km/h (3 Bft) 91,49 %
29.05.2022 13:28 14,8 C 15,6 C 12,8 C 76 % 1015,0 hPa 0,0 l/m 0 min 0 min 186 W/m 19,3 km/h (3 Bft) 93,62 %
29.05.2022 13:30 14,7 C 14,4 C 11,7 C 75 % 1015,0 hPa 0,0 l/m 0 min 2 min 122 W/m 25,7 km/h (4 Bft) 93,62 %
29.05.2022 13:32 14,3 C 13,3 C 10,0 C 73 % 1015,2 hPa 0,2 l/m 0 min 2 min 107 W/m 29,0 km/h (5 Bft) 93,48 %
29.05.2022 13:34 13,9 C 11,7 C 8,3 C 77 % 1015,1 hPa 1,2 l/m 0 min 2 min 123 W/m 19,3 km/h (3 Bft) 93,62 %
29.05.2022 13:36 13,5 C 10,6 C 7,8 C 79 % 1015,1 hPa 0,0 l/m 0 min 2 min 141 W/m 12,9 km/h (3 Bft) 80,85 %
29.05.2022 13:38 13,1 C 10,6 C 7,8 C 80 % 1015,1 hPa 0,0 l/m 0 min 2 min 144 W/m 12,9 km/h (3 Bft) 70,21 %
29.05.2022 13:40 12,8 C 10,6 C 7,2 C 82 % 1014,9 hPa 0,2 l/m 0 min 2 min 174 W/m 6,4 km/h (2 Bft) 91,49 %
29.05.2022 13:42 12,6 C 10,6 C 7,2 C 84 % 1014,9 hPa 0,0 l/m 0 min 0 min 212 W/m 6,4 km/h (2 Bft) 95,74 %
29.05.2022 13:44 12,5 C 11,1 C 7,2 C 84 % 1014,9 hPa 0,0 l/m 0 min 0 min 257 W/m 9,7 km/h (2 Bft) 95,65 %
29.05.2022 13:46 12,4 C 11,7 C 8,3 C 86 % 1014,9 hPa 0,0 l/m 0 min 0 min 389 W/m 6,4 km/h (2 Bft) 95,74 %
29.05.2022 13:48 12,4 C 12,2 C 8,9 C 87 % 1014,8 hPa 0,0 l/m 2 min 0 min 568 W/m 6,4 km/h (2 Bft) 95,74 %
29.05.2022 13:50 12,4 C 12,2 C 7,8 C 87 % 1014,8 hPa 0,0 l/m 2 min 0 min 436 W/m 6,4 km/h (2 Bft) 93,62 %
29.05.2022 13:52 12,3 C 12,8 C 8,3 C 88 % 1014,8 hPa 0,0 l/m 2 min 0 min 471 W/m 6,4 km/h (2 Bft) 93,62 %
29.05.2022 13:54 12,3 C 13,3 C 8,3 C 88 % 1014,7 hPa 0,0 l/m 2 min 0 min 475 W/m 12,9 km/h (3 Bft) 97,87 %
29.05.2022 13:56 12,4 C 14,4 C 8,9 C 88 % 1014,7 hPa 0,0 l/m 2 min 0 min 475 W/m 6,4 km/h (2 Bft) 95,65 %
29.05.2022 13:58 12,7 C 15,6 C 9,4 C 89 % 1014,7 hPa 0,0 l/m 2 min 0 min 991 W/m 12,9 km/h (3 Bft) 97,87 %
29.05.2022 14:00 12,8 C 16,1 C 9,4 C 89 % 1014,7 hPa 0,0 l/m 2 min 0 min 1065 W/m 12,9 km/h (3 Bft) 97,87 %
29.05.2022 14:02 13,1 C 17,2 C 9,4 C 89 % 1014,6 hPa 0,0 l/m 2 min 0 min 1079 W/m 12,9 km/h (3 Bft) 85,11 %
29.05.2022 14:04 13,3 C 17,2 C 10,0 C 89 % 1014,7 hPa 0,0 l/m 2 min 0 min 1041 W/m 9,7 km/h (2 Bft) 93,62 %
29.05.2022 14:06 13,6 C 17,8 C 9,4 C 89 % 1014,6 hPa 0,0 l/m 2 min 0 min 990 W/m 12,9 km/h (3 Bft) 91,30 %
29.05.2022 14:08 13,7 C 17,2 C 9,4 C 88 % 1014,6 hPa 0,0 l/m 2 min 0 min 930 W/m 9,7 km/h (2 Bft) 97,87 %
29.05.2022 14:10 13,8 C 17,2 C 9,4 C 87 % 1014,6 hPa 0,0 l/m 2 min 0 min 885 W/m 9,7 km/h (2 Bft) 100,00 %
29.05.2022 14:12 13,9 C 16,7 C 8,9 C 86 % 1014,6 hPa 0,0 l/m 2 min 0 min 875 W/m 12,9 km/h (3 Bft) 100,00 %
29.05.2022 14:14 14,0 C 16,7 C 8,9 C 84 % 1014,5 hPa 0,0 l/m 2 min 0 min 865 W/m 19,3 km/h (3 Bft) 100,00 %
29.05.2022 14:16 14,1 C 17,2 C 8,9 C 84 % 1014,5 hPa 0,0 l/m 2 min 0 min 849 W/m 9,7 km/h (2 Bft) 100,00 %
29.05.2022 14:18 14,3 C 17,8 C 9,4 C 84 % 1014,4 hPa 0,0 l/m 2 min 0 min 978 W/m 9,7 km/h (2 Bft) 100,00 %
29.05.2022 14:20 14,4 C 18,3 C 10,0 C 85 % 1014,4 hPa 0,0 l/m 2 min 0 min 1056 W/m 19,3 km/h (3 Bft) 100,00 %
29.05.2022 14:22 14,6 C 18,3 C 10,0 C 84 % 1014,4 hPa 0,0 l/m 2 min 0 min 1146 W/m 12,9 km/h (3 Bft) 100,00 %
29.05.2022 14:24 14,8 C 18,3 C 10,0 C 84 % 1014,5 hPa 0,0 l/m 2 min 0 min 1153 W/m 9,7 km/h (2 Bft) 97,87 %
29.05.2022 14:26 14,9 C 17,8 C 9,4 C 82 % 1014,4 hPa 0,0 l/m 2 min 0 min 947 W/m 9,7 km/h (2 Bft) 97,87 %
29.05.2022 14:28 15,1 C 17,8 C 10,0 C 82 % 1014,4 hPa 0,0 l/m 2 min 0 min 415 W/m 9,7 km/h (2 Bft) 100,00 %
29.05.2022 14:30 15,1 C 17,8 C 10,0 C 80 % 1014,3 hPa 0,0 l/m 2 min 0 min 581 W/m 9,7 km/h (2 Bft) 100,00 %
29.05.2022 14:32 15,2 C 18,3 C 9,4 C 79 % 1014,3 hPa 0,0 l/m 2 min 0 min 631 W/m 16,1 km/h (3 Bft) 100,00 %
29.05.2022 14:34 15,1 C 18,3 C 9,4 C 76 % 1014,3 hPa 0,0 l/m 2 min 0 min 1029 W/m 9,7 km/h (2 Bft) 100,00 %
29.05.2022 14:36 15,3 C 18,9 C 10,0 C 77 % 1014,3 hPa 0,0 l/m 2 min 0 min 843 W/m 12,9 km/h (3 Bft) 100,00 %
29.05.2022 14:38 15,5 C 18,9 C 10,6 C 78 % 1014,3 hPa 0,0 l/m 2 min 0 min 842 W/m 6,4 km/h (2 Bft) 100,00 %
29.05.2022 14:40 15,6 C 18,3 C 10,0 C 77 % 1014,3 hPa 0,0 l/m 2 min 0 min 841 W/m 19,3 km/h (3 Bft) 100,00 %
29.05.2022 14:42 15,6 C 17,2 C 10,6 C 75 % 1014,2 hPa 0,0 l/m 2 min 0 min 1044 W/m 22,5 km/h (4 Bft) 100,00 %
29.05.2022 14:44 15,6 C 17,2 C 11,1 C 75 % 1014,2 hPa 0,0 l/m 2 min 0 min 489 W/m 9,7 km/h (2 Bft) 100,00 %
29.05.2022 14:46 15,6 C 17,8 C 11,7 C 75 % 1014,2 hPa 0,0 l/m 2 min 0 min 652 W/m 12,9 km/h (3 Bft) 100,00 %
29.05.2022 14:48 15,7 C 17,2 C 11,7 C 75 % 1014,2 hPa 0,0 l/m 2 min 0 min 625 W/m 6,4 km/h (2 Bft) 100,00 %
29.05.2022 14:50 15,7 C 17,2 C 12,2 C 75 % 1014,1 hPa 0,0 l/m 2 min 0 min 426 W/m 6,4 km/h (2 Bft) 100,00 %
29.05.2022 14:52 15,6 C 16,7 C 11,7 C 75 % 1014,2 hPa 0,0 l/m 2 min 0 min 423 W/m 12,9 km/h (3 Bft) 100,00 %
29.05.2022 14:54 15,6 C 16,7 C 11,7 C 75 % 1014,1 hPa 0,0 l/m 2 min 0 min 486 W/m 9,7 km/h (2 Bft) 100,00 %
29.05.2022 14:56 15,5 C 16,7 C 11,7 C 75 % 1014,1 hPa 0,0 l/m 2 min 0 min 467 W/m 9,7 km/h (2 Bft) 97,87 %
29.05.2022 14:58 15,4 C 16,1 C 12,2 C 75 % 1014,1 hPa 0,0 l/m 2 min 0 min 468 W/m 12,9 km/h (3 Bft) 97,87 %
29.05.2022 15:00 15,4 C 16,1 C 12,2 C 75 % 1014,1 hPa 0,0 l/m 2 min 0 min 437 W/m 9,7 km/h (2 Bft) 100,00 %
29.05.2022 15:02 15,4 C 16,1 C 12,2 C 76 % 1014,2 hPa 0,0 l/m 2 min 0 min 420 W/m 9,7 km/h (2 Bft) 100,00 %
29.05.2022 15:04 15,3 C 16,1 C 12,2 C 75 % 1014,2 hPa 0,0 l/m 0 min 0 min 397 W/m 9,7 km/h (2 Bft) 97,87 %
29.05.2022 15:06 15,3 C 16,1 C 12,2 C 75 % 1014,1 hPa 0,0 l/m 0 min 0 min 334 W/m 12,9 km/h (3 Bft) 97,83 %
29.05.2022 15:08 15,3 C 15,6 C 11,7 C 74 % 1014,1 hPa 0,0 l/m 0 min 0 min 243 W/m 6,4 km/h (2 Bft) 97,87 %
29.05.2022 15:10 15,2 C 15,6 C 11,7 C 74 % 1014,1 hPa 0,0 l/m 0 min 0 min 213 W/m 16,1 km/h (3 Bft) 95,74 %
29.05.2022 15:12 15,1 C 15,0 C 11,1 C 75 % 1014,1 hPa 0,0 l/m 0 min 0 min 212 W/m 12,9 km/h (3 Bft) 95,74 %
29.05.2022 15:14 15,1 C 15,0 C 11,1 C 75 % 1014,1 hPa 0,0 l/m 0 min 0 min 260 W/m 9,7 km/h (2 Bft) 97,87 %
29.05.2022 15:16 15,1 C 15,6 C 11,1 C 75 % 1014,1 hPa 0,0 l/m 0 min 0 min 296 W/m 6,4 km/h (2 Bft) 97,87 %
29.05.2022 15:18 15,0 C 15,0 C 11,1 C 75 % 1014,1 hPa 0,0 l/m 0 min 0 min 301 W/m 6,4 km/h (2 Bft) 97,83 %
29.05.2022 15:20 14,9 C 15,0 C 11,1 C 76 % 1014,0 hPa 0,0 l/m 0 min 0 min 241 W/m 12,9 km/h (3 Bft) 97,87 %
29.05.2022 15:22 14,9 C 15,0 C 11,1 C 76 % 1014,1 hPa 0,0 l/m 0 min 0 min 142 W/m 9,7 km/h (2 Bft) 97,87 %
29.05.2022 15:24 14,8 C 14,4 C 10,6 C 75 % 1014,1 hPa 0,0 l/m 0 min 0 min 90 W/m 12,9 km/h (3 Bft) 97,87 %
29.05.2022 15:26 14,7 C 14,4 C 10,6 C 75 % 1014,1 hPa 0,0 l/m 0 min 2 min 82 W/m 16,1 km/h (3 Bft) 97,87 %
29.05.2022 15:28 14,7 C 13,9 C 10,0 C 76 % 1014,0 hPa 0,0 l/m 0 min 2 min 100 W/m 12,9 km/h (3 Bft) 97,87 %
29.05.2022 15:30 14,5 C 13,9 C 10,0 C 77 % 1014,1 hPa 0,0 l/m 0 min 2 min 128 W/m 9,7 km/h (2 Bft) 97,83 %
29.05.2022 15:32 14,3 C 13,9 C 10,0 C 79 % 1014,0 hPa 0,0 l/m 0 min 0 min 142 W/m 12,9 km/h (3 Bft) 95,74 %
29.05.2022 15:34 14,3 C 13,3 C 10,0 C 80 % 1014,1 hPa 0,0 l/m 0 min 0 min 172 W/m 19,3 km/h (3 Bft) 97,87 %
29.05.2022 15:36 14,3 C 13,3 C 10,0 C 80 % 1014,1 hPa 0,0 l/m 0 min 0 min 192 W/m 12,9 km/h (3 Bft) 95,74 %
29.05.2022 15:38 14,3 C 13,9 C 10,0 C 81 % 1014,0 hPa 0,0 l/m 0 min 0 min 232 W/m 16,1 km/h (3 Bft) 100,00 %
29.05.2022 15:40 14,2 C 13,9 C 10,6 C 81 % 1014,1 hPa 0,0 l/m 0 min 0 min 273 W/m 19,3 km/h (3 Bft) 100,00 %
29.05.2022 15:42 14,1 C 13,9 C 10,6 C 79 % 1014,0 hPa 0,0 l/m 0 min 0 min 323 W/m 16,1 km/h (3 Bft) 100,00 %
29.05.2022 15:44 14,1 C 14,4 C 10,6 C 79 % 1014,1 hPa 0,0 l/m 0 min 0 min 373 W/m 32,2 km/h (5 Bft) 97,87 %
29.05.2022 15:46 14,1 C 15,0 C 10,6 C 79 % 1014,1 hPa 0,0 l/m 0 min 0 min 369 W/m 32,2 km/h (5 Bft) 100,00 %
29.05.2022 15:48 14,2 C 15,6 C 10,6 C 78 % 1014,1 hPa 0,0 l/m 2 min 0 min 583 W/m 25,7 km/h (4 Bft) 100,00 %
29.05.2022 15:50 14,2 C 15,6 C 11,1 C 77 % 1014,1 hPa 0,0 l/m 2 min 0 min 607 W/m 19,3 km/h (3 Bft) 100,00 %
29.05.2022 15:52 14,3 C 16,1 C 11,1 C 76 % 1014,2 hPa 0,0 l/m 2 min 0 min 464 W/m 22,5 km/h (4 Bft) 97,87 %
29.05.2022 15:54 14,3 C 16,7 C 11,1 C 75 % 1014,1 hPa 0,0 l/m 2 min 0 min 557 W/m 16,1 km/h (3 Bft) 100,00 %
29.05.2022 15:56 14,4 C 17,2 C 11,7 C 75 % 1014,1 hPa 0,0 l/m 2 min 0 min 721 W/m 25,7 km/h (4 Bft) 100,00 %
29.05.2022 15:58 14,6 C 17,2 C 11,7 C 74 % 1014,1 hPa 0,0 l/m 2 min 0 min 833 W/m 22,5 km/h (4 Bft) 100,00 %
29.05.2022 16:00 14,7 C 17,8 C 11,7 C 73 % 1014,1 hPa 0,0 l/m 2 min 0 min 813 W/m 16,1 km/h (3 Bft) 100,00 %
29.05.2022 16:02 14,8 C 17,8 C 11,7 C 72 % 1014,1 hPa 0,0 l/m 2 min 0 min 663 W/m 22,5 km/h (4 Bft) 100,00 %
29.05.2022 16:04 14,8 C 17,2 C 11,7 C 70 % 1014,1 hPa 0,0 l/m 2 min 0 min 559 W/m 25,7 km/h (4 Bft) 100,00 %
29.05.2022 16:06 14,9 C 16,7 C 11,7 C 70 % 1014,2 hPa 0,0 l/m 2 min 0 min 529 W/m 22,5 km/h (4 Bft) 97,83 %
29.05.2022 16:08 14,9 C 16,1 C 11,7 C 70 % 1014,1 hPa 0,0 l/m 2 min 0 min 447 W/m 25,7 km/h (4 Bft) 97,87 %
29.05.2022 16:10 14,9 C 15,6 C 11,1 C 70 % 1014,1 hPa 0,0 l/m 0 min 0 min 303 W/m 22,5 km/h (4 Bft) 95,74 %
29.05.2022 16:12 14,8 C 15,6 C 11,1 C 69 % 1014,1 hPa 0,0 l/m 0 min 0 min 317 W/m 19,3 km/h (3 Bft) 95,74 %
29.05.2022 16:14 14,8 C 15,6 C 11,1 C 69 % 1014,1 hPa 0,0 l/m 2 min 0 min 404 W/m 19,3 km/h (3 Bft) 97,87 %
29.05.2022 16:16 14,7 C 15,6 C 11,1 C 69 % 1014,1 hPa 0,0 l/m 2 min 0 min 483 W/m 16,1 km/h (3 Bft) 93,62 %
29.05.2022 16:18 14,7 C 16,1 C 11,1 C 69 % 1014,1 hPa 0,0 l/m 2 min 0 min 576 W/m 16,1 km/h (3 Bft) 97,83 %
29.05.2022 16:20 14,7 C 16,1 C 11,1 C 69 % 1014,0 hPa 0,0 l/m 2 min 0 min 473 W/m 12,9 km/h (3 Bft) 95,74 %
29.05.2022 16:22 14,8 C 16,7 C 11,1 C 69 % 1014,0 hPa 0,0 l/m 2 min 0 min 474 W/m 12,9 km/h (3 Bft) 97,87 %
29.05.2022 16:24 14,9 C 17,2 C 11,7 C 70 % 1014,0 hPa 0,0 l/m 2 min 0 min 575 W/m 16,1 km/h (3 Bft) 95,74 %
29.05.2022 16:26 14,9 C 16,7 C 11,7 C 69 % 1014,0 hPa 0,0 l/m 2 min 0 min 453 W/m 12,9 km/h (3 Bft) 95,74 %
29.05.2022 16:28 15,1 C 16,7 C 11,7 C 72 % 1013,9 hPa 0,0 l/m 2 min 0 min 443 W/m 16,1 km/h (3 Bft) 97,87 %
29.05.2022 16:30 15,1 C 16,7 C 11,7 C 73 % 1014,0 hPa 0,0 l/m 2 min 0 min 454 W/m 9,7 km/h (2 Bft) 97,83 %
29.05.2022 16:32 15,1 C 16,7 C 11,7 C 74 % 1014,0 hPa 0,0 l/m 2 min 0 min 444 W/m 12,9 km/h (3 Bft) 95,74 %
29.05.2022 16:34 15,2 C 16,7 C 11,7 C 74 % 1014,0 hPa 0,0 l/m 2 min 0 min 508 W/m 12,9 km/h (3 Bft) 95,74 %
29.05.2022 16:36 15,2 C 17,8 C 12,2 C 75 % 1014,0 hPa 0,0 l/m 2 min 0 min 614 W/m 16,1 km/h (3 Bft) 97,87 %
29.05.2022 16:38 15,2 C 18,3 C 12,2 C 75 % 1013,9 hPa 0,0 l/m 2 min 0 min 711 W/m 12,9 km/h (3 Bft) 97,87 %
29.05.2022 16:40 15,3 C 17,8 C 12,2 C 75 % 1014,0 hPa 0,0 l/m 2 min 0 min 640 W/m 22,5 km/h (4 Bft) 97,87 %
29.05.2022 16:42 15,3 C 17,8 C 12,2 C 72 % 1014,0 hPa 0,0 l/m 2 min 0 min 506 W/m 16,1 km/h (3 Bft) 95,65 %
29.05.2022 16:44 15,4 C 17,2 C 12,2 C 71 % 1013,9 hPa 0,0 l/m 2 min 0 min 411 W/m 9,7 km/h (2 Bft) 95,74 %
29.05.2022 16:46 15,4 C 16,7 C 11,7 C 69 % 1013,9 hPa 0,0 l/m 0 min 0 min 295 W/m 16,1 km/h (3 Bft) 95,74 %
29.05.2022 16:48 15,4 C 16,7 C 11,7 C 68 % 1013,9 hPa 0,0 l/m 2 min 0 min 327 W/m 16,1 km/h (3 Bft) 95,74 %
29.05.2022 16:50 15,4 C 16,1 C 11,7 C 67 % 1013,9 hPa 0,0 l/m 0 min 0 min 277 W/m 16,1 km/h (3 Bft) 95,74 %
29.05.2022 16:52 15,3 C 15,6 C 11,7 C 68 % 1013,9 hPa 0,0 l/m 0 min 0 min 217 W/m 12,9 km/h (3 Bft) 95,74 %
29.05.2022 16:54 15,2 C 15,6 C 11,1 C 69 % 1014,0 hPa 0,0 l/m 0 min 0 min 139 W/m 12,9 km/h (3 Bft) 97,83 %
29.05.2022 16:56 15,0 C 14,4 C 10,6 C 67 % 1014,1 hPa 0,0 l/m 0 min 0 min 91 W/m 32,2 km/h (5 Bft) 97,87 %
29.05.2022 16:58 14,7 C 13,9 C 10,0 C 68 % 1014,0 hPa 0,0 l/m 0 min 0 min 76 W/m 22,5 km/h (4 Bft) 95,74 %
29.05.2022 17:00 14,3 C 13,9 C 9,4 C 70 % 1014,0 hPa 0,0 l/m 0 min 2 min 75 W/m 16,1 km/h (3 Bft) 95,74 %
29.05.2022 17:02 14,0 C 13,3 C 8,9 C 71 % 1014,0 hPa 0,0 l/m 0 min 2 min 80 W/m 16,1 km/h (3 Bft) 97,87 %
29.05.2022 17:04 13,6 C 12,8 C 8,3 C 73 % 1014,0 hPa 0,0 l/m 0 min 2 min 89 W/m 9,7 km/h (2 Bft) 97,87 %
29.05.2022 17:06 13,3 C 12,2 C 7,8 C 76 % 1013,9 hPa 0,0 l/m 0 min 2 min 100 W/m 12,9 km/h (3 Bft) 95,65 %
29.05.2022 17:08 13,0 C 12,2 C 7,2 C 78 % 1014,0 hPa 0,2 l/m 0 min 2 min 114 W/m 16,1 km/h (3 Bft) 97,87 %
29.05.2022 17:10 12,8 C 12,2 C 7,2 C 78 % 1013,9 hPa 0,0 l/m 0 min 2 min 127 W/m 19,3 km/h (3 Bft) 95,74 %
29.05.2022 17:12 12,7 C 12,2 C 7,2 C 79 % 1013,9 hPa 0,0 l/m 0 min 2 min 143 W/m 9,7 km/h (2 Bft) 95,74 %
29.05.2022 17:14 12,6 C 12,2 C 7,2 C 79 % 1013,9 hPa 0,0 l/m 0 min 2 min 168 W/m 6,4 km/h (2 Bft) 95,74 %
29.05.2022 17:16 12,6 C 12,2 C 7,2 C 80 % 1013,8 hPa 0,0 l/m 0 min 0 min 193 W/m 6,4 km/h (2 Bft) 95,74 %
29.05.2022 17:18 12,6 C 12,8 C 7,8 C 80 % 1013,7 hPa 0,0 l/m 0 min 0 min 211 W/m 6,4 km/h (2 Bft) 97,83 %
29.05.2022 17:20 12,6 C 12,8 C 8,3 C 81 % 1013,7 hPa 0,0 l/m 0 min 0 min 245 W/m 6,4 km/h (2 Bft) 92,98 %
29.05.2022 17:22 12,6 C 13,3 C 8,3 C 82 % 1013,7 hPa 0,0 l/m 0 min 0 min 285 W/m 6,4 km/h (2 Bft) 95,74 %
29.05.2022 17:24 12,7 C 13,9 C 8,9 C 82 % 1013,8 hPa 0,0 l/m 2 min 0 min 331 W/m 6,4 km/h (2 Bft) 93,48 %
29.05.2022 17:26 12,8 C 14,4 C 9,4 C 82 % 1013,7 hPa 0,0 l/m 2 min 0 min 345 W/m 9,7 km/h (2 Bft) 95,74 %
29.05.2022 17:28 12,9 C 15,6 C 10,0 C 81 % 1013,7 hPa 0,0 l/m 2 min 0 min 345 W/m 9,7 km/h (2 Bft) 95,74 %
29.05.2022 17:30 13,2 C 15,6 C 10,6 C 82 % 1013,7 hPa 0,0 l/m 2 min 0 min 322 W/m 16,1 km/h (3 Bft) 95,74 %
29.05.2022 17:32 13,4 C 15,6 C 10,6 C 81 % 1013,7 hPa 0,0 l/m 2 min 0 min 301 W/m 9,7 km/h (2 Bft) 93,62 %
29.05.2022 17:34 13,6 C 15,6 C 10,6 C 79 % 1013,7 hPa 0,0 l/m 0 min 0 min 206 W/m 12,9 km/h (3 Bft) 93,62 %
29.05.2022 17:36 13,7 C 15,0 C 10,6 C 79 % 1013,7 hPa 0,0 l/m 0 min 0 min 145 W/m 9,7 km/h (2 Bft) 97,83 %
29.05.2022 17:38 13,7 C 14,4 C 10,0 C 79 % 1013,7 hPa 0,0 l/m 0 min 0 min 113 W/m 16,1 km/h (3 Bft) 97,87 %
29.05.2022 17:40 13,8 C 13,9 C 10,0 C 78 % 1013,7 hPa 0,0 l/m 0 min 0 min 88 W/m 16,1 km/h (3 Bft) 97,87 %
29.05.2022 17:42 13,8 C 13,9 C 10,0 C 78 % 1013,7 hPa 0,0 l/m 0 min 0 min 79 W/m 6,4 km/h (2 Bft) 97,87 %
29.05.2022 17:44 13,8 C 13,3 C 10,0 C 78 % 1013,7 hPa 0,0 l/m 0 min 0 min 82 W/m 22,5 km/h (4 Bft) 100,00 %
29.05.2022 17:46 13,7 C 13,3 C 9,4 C 77 % 1013,8 hPa 0,0 l/m 0 min 0 min 90 W/m 22,5 km/h (4 Bft) 100,00 %
29.05.2022 17:48 13,6 C 13,3 C 9,4 C 77 % 1013,7 hPa 0,0 l/m 0 min 0 min 88 W/m 22,5 km/h (4 Bft) 100,00 %
29.05.2022 17:50 13,4 C 12,8 C 9,4 C 77 % 1013,8 hPa 0,0 l/m 0 min 0 min 74 W/m 19,3 km/h (3 Bft) 100,00 %
29.05.2022 17:52 13,4 C 12,8 C 8,9 C 77 % 1013,8 hPa 0,0 l/m 0 min 0 min 69 W/m 19,3 km/h (3 Bft) 100,00 %
29.05.2022 17:54 13,3 C 12,8 C 9,4 C 77 % 1013,7 hPa 0,0 l/m 0 min 0 min 68 W/m 12,9 km/h (3 Bft) 100,00 %
29.05.2022 17:56 13,2 C 12,8 C 8,9 C 77 % 1013,7 hPa 0,0 l/m 0 min 0 min 64 W/m 16,1 km/h (3 Bft) 100,00 %
29.05.2022 17:58 13,1 C 12,8 C 8,9 C 78 % 1013,7 hPa 0,0 l/m 0 min 0 min 74 W/m 16,1 km/h (3 Bft) 100,00 %
29.05.2022 18:00 13,1 C 12,8 C 8,9 C 78 % 1013,7 hPa 0,0 l/m 0 min 0 min 98 W/m 12,9 km/h (3 Bft) 100,00 %
29.05.2022 18:02 13,1 C 12,8 C 8,9 C 78 % 1013,7 hPa 0,0 l/m 0 min 0 min 134 W/m 9,7 km/h (2 Bft) 100,00 %
29.05.2022 18:04 13,0 C 12,8 C 8,9 C 78 % 1013,6 hPa 0,0 l/m 0 min 0 min 163 W/m 12,9 km/h (3 Bft) 97,87 %
29.05.2022 18:08 13,0 C 12,8 C 9,4 C 78 % 1013,5 hPa 0,0 l/m 0 min 0 min 187 W/m 12,9 km/h (3 Bft) 98,92 %
29.05.2022 18:10 13,1 C 13,3 C 9,4 C 78 % 1013,5 hPa 0,0 l/m 0 min 0 min 188 W/m 6,4 km/h (2 Bft) 100,00 %
29.05.2022 18:12 13,1 C 13,3 C 9,4 C 78 % 1013,5 hPa 0,0 l/m 0 min 0 min 201 W/m 9,7 km/h (2 Bft) 100,00 %
29.05.2022 18:14 13,1 C 13,9 C 9,4 C 78 % 1013,5 hPa 0,0 l/m 0 min 0 min 217 W/m 3,2 km/h (1 Bft) 100,00 %
29.05.2022 18:16 13,2 C 13,9 C 9,4 C 78 % 1013,5 hPa 0,0 l/m 0 min 0 min 221 W/m 12,9 km/h (3 Bft) 100,00 %
29.05.2022 18:18 13,3 C 13,9 C 10,0 C 77 % 1013,6 hPa 0,0 l/m 0 min 0 min 216 W/m 9,7 km/h (2 Bft) 100,00 %
29.05.2022 18:20 13,3 C 13,9 C 10,0 C 77 % 1013,5 hPa 0,0 l/m 0 min 0 min 202 W/m 9,7 km/h (2 Bft) 100,00 %
29.05.2022 18:22 13,4 C 13,9 C 10,0 C 77 % 1013,5 hPa 0,0 l/m 0 min 0 min 194 W/m 19,3 km/h (3 Bft) 97,87 %
29.05.2022 18:24 13,4 C 13,9 C 10,0 C 76 % 1013,6 hPa 0,0 l/m 0 min 0 min 193 W/m 9,7 km/h (2 Bft) 100,00 %
29.05.2022 18:26 13,4 C 13,9 C 10,0 C 74 % 1013,6 hPa 0,0 l/m 0 min 0 min 203 W/m 6,4 km/h (2 Bft) 100,00 %
29.05.2022 18:28 13,5 C 13,9 C 10,0 C 75 % 1013,6 hPa 0,0 l/m 0 min 0 min 203 W/m 3,2 km/h (1 Bft) 100,00 %
29.05.2022 18:30 13,6 C 13,9 C 10,0 C 75 % 1013,6 hPa 0,0 l/m 0 min 0 min 191 W/m 6,4 km/h (2 Bft) 100,00 %
29.05.2022 18:32 13,6 C 13,9 C 10,0 C 75 % 1013,6 hPa 0,0 l/m 0 min 0 min 171 W/m 6,4 km/h (2 Bft) 97,87 %
29.05.2022 18:34 13,6 C 13,9 C 10,0 C 74 % 1013,5 hPa 0,0 l/m 0 min 0 min 163 W/m 22,5 km/h (4 Bft) 100,00 %
29.05.2022 18:36 13,6 C 13,9 C 10,0 C 75 % 1013,6 hPa 0,0 l/m 0 min 0 min 150 W/m 16,1 km/h (3 Bft) 100,00 %
29.05.2022 18:38 13,7 C 13,9 C 10,0 C 75 % 1013,5 hPa 0,0 l/m 0 min 0 min 136 W/m 6,4 km/h (2 Bft) 100,00 %
29.05.2022 18:40 13,7 C 13,9 C 10,0 C 74 % 1013,6 hPa 0,0 l/m 0 min 0 min 133 W/m 6,4 km/h (2 Bft) 100,00 %
29.05.2022 18:42 13,7 C 13,9 C 10,0 C 75 % 1013,5 hPa 0,0 l/m 0 min 0 min 129 W/m 6,4 km/h (2 Bft) 100,00 %
29.05.2022 18:44 13,7 C 13,9 C 10,0 C 75 % 1013,5 hPa 0,0 l/m 0 min 0 min 136 W/m 12,9 km/h (3 Bft) 100,00 %
29.05.2022 18:46 13,7 C 13,9 C 10,0 C 76 % 1013,5 hPa 0,0 l/m 0 min 0 min 137 W/m 12,9 km/h (3 Bft) 100,00 %
29.05.2022 18:48 13,7 C 13,9 C 10,0 C 75 % 1013,5 hPa 0,0 l/m 0 min 0 min 118 W/m 16,1 km/h (3 Bft) 100,00 %
29.05.2022 18:50 13,7 C 13,3 C 9,4 C 75 % 1013,5 hPa 0,0 l/m 0 min 0 min 103 W/m 9,7 km/h (2 Bft) 100,00 %
29.05.2022 18:52 13,7 C 13,3 C 9,4 C 75 % 1013,5 hPa 0,0 l/m 0 min 0 min 93 W/m 12,9 km/h (3 Bft) 95,65 %
29.05.2022 18:54 13,6 C 13,3 C 9,4 C 74 % 1013,4 hPa 0,0 l/m 0 min 0 min 87 W/m 19,3 km/h (3 Bft) 95,74 %
29.05.2022 18:56 13,5 C 13,3 C 9,4 C 74 % 1013,5 hPa 0,0 l/m 0 min 0 min 90 W/m 16,1 km/h (3 Bft) 97,87 %
29.05.2022 18:58 13,4 C 13,3 C 9,4 C 74 % 1013,4 hPa 0,0 l/m 0 min 0 min 91 W/m 12,9 km/h (3 Bft) 97,87 %
29.05.2022 19:00 13,4 C 12,8 C 9,4 C 74 % 1013,5 hPa 0,0 l/m 0 min 0 min 91 W/m 9,7 km/h (2 Bft) 97,87 %
29.05.2022 19:02 13,4 C 12,8 C 9,4 C 74 % 1013,4 hPa 0,0 l/m 0 min 0 min 106 W/m 19,3 km/h (3 Bft) 95,74 %
29.05.2022 19:04 13,4 C 13,3 C 9,4 C 75 % 1013,4 hPa 0,0 l/m 0 min 0 min 119 W/m 6,4 km/h (2 Bft) 97,83 %
29.05.2022 19:06 13,4 C 13,9 C 9,4 C 75 % 1013,4 hPa 0,0 l/m 0 min 0 min 116 W/m 12,9 km/h (3 Bft) 95,74 %
29.05.2022 19:08 13,4 C 15,0 C 9,4 C 75 % 1013,5 hPa 0,0 l/m 2 min 0 min 200 W/m 12,9 km/h (3 Bft) 91,49 %
29.05.2022 19:10 13,5 C 15,6 C 9,4 C 75 % 1013,4 hPa 0,0 l/m 2 min 0 min 319 W/m 9,7 km/h (2 Bft) 95,74 %
29.05.2022 19:12 13,6 C 15,6 C 10,0 C 75 % 1013,4 hPa 0,0 l/m 2 min 0 min 286 W/m 9,7 km/h (2 Bft) 94,00 %
29.05.2022 19:14 13,7 C 15,0 C 10,0 C 75 % 1013,4 hPa 0,0 l/m 2 min 0 min 244 W/m 12,9 km/h (3 Bft) 95,74 %
29.05.2022 19:16 13,8 C 15,0 C 10,0 C 74 % 1013,5 hPa 0,0 l/m 2 min 0 min 201 W/m 16,1 km/h (3 Bft) 95,65 %
29.05.2022 19:18 13,8 C 14,4 C 10,0 C 74 % 1013,5 hPa 0,0 l/m 2 min 0 min 194 W/m 16,1 km/h (3 Bft) 95,74 %
29.05.2022 19:20 13,9 C 14,4 C 10,0 C 73 % 1013,4 hPa 0,0 l/m 0 min 0 min 129 W/m 9,7 km/h (2 Bft) 95,74 %
29.05.2022 19:22 13,8 C 14,4 C 9,4 C 73 % 1013,5 hPa 0,0 l/m 0 min 0 min 125 W/m 9,7 km/h (2 Bft) 95,74 %
29.05.2022 19:24 13,8 C 13,9 C 9,4 C 74 % 1013,5 hPa 0,0 l/m 2 min 0 min 190 W/m 12,9 km/h (3 Bft) 93,62 %
29.05.2022 19:26 13,8 C 13,9 C 9,4 C 72 % 1013,5 hPa 0,0 l/m 2 min 0 min 235 W/m 19,3 km/h (3 Bft) 93,62 %
29.05.2022 19:28 13,7 C 13,9 C 9,4 C 72 % 1013,5 hPa 0,0 l/m 2 min 0 min 234 W/m 6,4 km/h (2 Bft) 95,65 %
29.05.2022 19:30 13,7 C 13,9 C 9,4 C 71 % 1013,5 hPa 0,0 l/m 2 min 0 min 242 W/m 19,3 km/h (3 Bft) 93,62 %
29.05.2022 19:32 13,7 C 13,9 C 9,4 C 71 % 1013,5 hPa 0,0 l/m 2 min 0 min 247 W/m 19,3 km/h (3 Bft) 95,74 %
29.05.2022 19:34 13,7 C 13,9 C 9,4 C 70 % 1013,5 hPa 0,0 l/m 2 min 0 min 247 W/m 22,5 km/h (4 Bft) 97,87 %
29.05.2022 19:36 13,7 C 13,9 C 9,4 C 70 % 1013,4 hPa 0,0 l/m 2 min 0 min 137 W/m 16,1 km/h (3 Bft) 97,87 %
29.05.2022 19:38 13,8 C 13,9 C 9,4 C 70 % 1013,4 hPa 0,0 l/m 0 min 0 min 117 W/m 16,1 km/h (3 Bft) 95,74 %
29.05.2022 19:40 13,7 C 13,9 C 9,4 C 70 % 1013,4 hPa 0,0 l/m 2 min 0 min 200 W/m 16,1 km/h (3 Bft) 95,65 %
29.05.2022 19:42 13,7 C 13,9 C 9,4 C 71 % 1013,5 hPa 0,0 l/m 2 min 0 min 169 W/m 9,7 km/h (2 Bft) 100,00 %
29.05.2022 19:44 13,7 C 13,3 C 9,4 C 71 % 1013,5 hPa 0,0 l/m 0 min 0 min 67 W/m 9,7 km/h (2 Bft) 97,87 %
29.05.2022 19:46 13,6 C 13,3 C 9,4 C 71 % 1013,5 hPa 0,0 l/m 0 min 0 min 60 W/m 19,3 km/h (3 Bft) 97,87 %
29.05.2022 19:48 13,6 C 13,3 C 9,4 C 71 % 1013,5 hPa 0,0 l/m 0 min 0 min 59 W/m 19,3 km/h (3 Bft) 95,74 %
29.05.2022 19:50 13,5 C 12,8 C 8,9 C 71 % 1013,5 hPa 0,0 l/m 0 min 0 min 57 W/m 12,9 km/h (3 Bft) 97,87 %
29.05.2022 19:52 13,4 C 12,8 C 8,9 C 71 % 1013,5 hPa 0,0 l/m 0 min 0 min 61 W/m 22,5 km/h (4 Bft) 97,83 %
29.05.2022 19:54 13,3 C 12,8 C 8,9 C 71 % 1013,5 hPa 0,0 l/m 0 min 0 min 51 W/m 16,1 km/h (3 Bft) 97,87 %
29.05.2022 19:56 13,2 C 12,8 C 8,9 C 71 % 1013,5 hPa 0,0 l/m 0 min 0 min 41 W/m 9,7 km/h (2 Bft) 95,74 %
29.05.2022 19:58 13,2 C 12,2 C 8,9 C 71 % 1013,5 hPa 0,0 l/m 0 min 0 min 35 W/m 12,9 km/h (3 Bft) 97,87 %
29.05.2022 20:00 13,1 C 12,2 C 8,9 C 71 % 1013,5 hPa 0,0 l/m 0 min 0 min 43 W/m 12,9 km/h (3 Bft) 97,87 %
29.05.2022 20:02 13,0 C 12,2 C 8,9 C 72 % 1013,5 hPa 0,0 l/m 0 min 0 min 58 W/m 12,9 km/h (3 Bft) 97,87 %
29.05.2022 20:04 12,9 C 12,8 C 8,9 C 72 % 1013,5 hPa 0,0 l/m 0 min 0 min 84 W/m 16,1 km/h (3 Bft) 97,83 %
29.05.2022 20:06 12,9 C 12,8 C 8,9 C 72 % 1013,5 hPa 0,0 l/m 0 min 0 min 93 W/m 6,4 km/h (2 Bft) 97,87 %
29.05.2022 20:08 12,9 C 12,8 C 8,9 C 73 % 1013,5 hPa 0,0 l/m 0 min 0 min 90 W/m 6,4 km/h (2 Bft) 95,74 %
29.05.2022 20:10 13,0 C 12,8 C 8,9 C 73 % 1013,5 hPa 0,0 l/m 0 min 0 min 84 W/m 12,9 km/h (3 Bft) 97,87 %
29.05.2022 20:12 13,0 C 12,8 C 8,9 C 72 % 1013,5 hPa 0,0 l/m 0 min 0 min 66 W/m 22,5 km/h (4 Bft) 93,62 %
29.05.2022 20:14 13,0 C 12,8 C 8,9 C 72 % 1013,6 hPa 0,0 l/m 0 min 0 min 51 W/m 22,5 km/h (4 Bft) 97,87 %
29.05.2022 20:16 12,9 C 12,2 C 8,9 C 72 % 1013,6 hPa 0,0 l/m 0 min 0 min 47 W/m 22,5 km/h (4 Bft) 97,83 %
29.05.2022 20:18 12,9 C 12,2 C 8,9 C 73 % 1013,6 hPa 0,0 l/m 0 min 0 min 41 W/m 19,3 km/h (3 Bft) 97,87 %
29.05.2022 20:20 12,8 C 12,2 C 8,9 C 73 % 1013,6 hPa 0,0 l/m 0 min 0 min 42 W/m 16,1 km/h (3 Bft) 97,87 %
29.05.2022 20:22 12,8 C 12,2 C 8,3 C 73 % 1013,6 hPa 0,0 l/m 0 min 0 min 41 W/m 9,7 km/h (2 Bft) 97,87 %
29.05.2022 20:24 12,8 C 12,2 C 8,3 C 74 % 1013,6 hPa 0,0 l/m 0 min 0 min 36 W/m 6,4 km/h (2 Bft) 97,87 %
29.05.2022 20:26 12,7 C 12,2 C 8,3 C 74 % 1013,5 hPa 0,0 l/m 0 min 0 min 33 W/m 6,4 km/h (2 Bft) 97,87 %
29.05.2022 20:28 12,7 C 12,2 C 8,3 C 74 % 1013,6 hPa 0,0 l/m 0 min 0 min 32 W/m 6,4 km/h (2 Bft) 100,00 %
29.05.2022 20:30 12,6 C 11,7 C 8,3 C 73 % 1013,6 hPa 0,0 l/m 0 min 0 min 32 W/m 12,9 km/h (3 Bft) 100,00 %
29.05.2022 20:32 12,6 C 11,7 C 8,3 C 73 % 1013,6 hPa 0,0 l/m 0 min 0 min 32 W/m 12,9 km/h (3 Bft) 97,87 %
29.05.2022 20:34 12,5 C 11,7 C 8,3 C 73 % 1013,6 hPa 0,0 l/m 0 min 0 min 34 W/m 12,9 km/h (3 Bft) 100,00 %
29.05.2022 20:36 12,4 C 11,7 C 7,8 C 74 % 1013,6 hPa 0,0 l/m 0 min 0 min 34 W/m 12,9 km/h (3 Bft) 97,87 %
29.05.2022 20:38 12,4 C 11,7 C 7,8 C 74 % 1013,6 hPa 0,0 l/m 0 min 0 min 35 W/m 16,1 km/h (3 Bft) 100,00 %
29.05.2022 20:40 12,3 C 11,7 C 7,8 C 74 % 1013,6 hPa 0,0 l/m 0 min 0 min 36 W/m 19,3 km/h (3 Bft) 100,00 %
29.05.2022 20:42 12,3 C 11,7 C 7,8 C 74 % 1013,6 hPa 0,0 l/m 0 min 0 min 37 W/m 9,7 km/h (2 Bft) 100,00 %
29.05.2022 20:44 12,2 C 11,7 C 7,8 C 74 % 1013,6 hPa 0,0 l/m 0 min 0 min 37 W/m 6,4 km/h (2 Bft) 100,00 %
29.05.2022 20:46 12,2 C 11,7 C 7,8 C 75 % 1013,7 hPa 0,0 l/m 0 min 0 min 35 W/m 12,9 km/h (3 Bft) 100,00 %
29.05.2022 20:48 12,2 C 11,7 C 7,8 C 75 % 1013,7 hPa 0,0 l/m 0 min 0 min 33 W/m 9,7 km/h (2 Bft) 100,00 %
29.05.2022 20:50 12,1 C 11,7 C 7,8 C 75 % 1013,7 hPa 0,0 l/m 0 min 0 min 29 W/m 19,3 km/h (3 Bft) 97,83 %
29.05.2022 20:52 12,1 C 11,7 C 7,8 C 75 % 1013,7 hPa 0,0 l/m 0 min 0 min 27 W/m 16,1 km/h (3 Bft) 100,00 %
29.05.2022 20:54 12,1 C 11,7 C 7,8 C 75 % 1013,7 hPa 0,0 l/m 0 min 0 min 25 W/m 16,1 km/h (3 Bft) 100,00 %
29.05.2022 20:56 12,1 C 11,7 C 7,8 C 75 % 1013,7 hPa 0,0 l/m 0 min 0 min 25 W/m 16,1 km/h (3 Bft) 97,87 %
29.05.2022 20:58 12,0 C 11,1 C 7,8 C 75 % 1013,7 hPa 0,0 l/m 0 min 0 min 24 W/m 9,7 km/h (2 Bft) 100,00 %
29.05.2022 21:00 12,0 C 11,7 C 7,8 C 76 % 1013,7 hPa 0,0 l/m 0 min 0 min 22 W/m 12,9 km/h (3 Bft) 97,87 %
29.05.2022 21:02 12,0 C 11,1 C 7,8 C 76 % 1013,7 hPa 0,0 l/m 0 min 0 min 20 W/m 16,1 km/h (3 Bft) 100,00 %
29.05.2022 21:04 11,9 C 11,1 C 7,8 C 76 % 1013,7 hPa 0,0 l/m 0 min 0 min 18 W/m 16,1 km/h (3 Bft) 100,00 %
29.05.2022 21:06 11,9 C 11,1 C 7,8 C 76 % 1013,7 hPa 0,0 l/m 0 min 0 min 16 W/m 16,1 km/h (3 Bft) 95,74 %
29.05.2022 21:08 11,9 C 11,1 C 7,8 C 76 % 1013,7 hPa 0,0 l/m 0 min 0 min 14 W/m 6,4 km/h (2 Bft) 97,87 %
29.05.2022 21:10 11,9 C 11,1 C 7,8 C 76 % 1013,7 hPa 0,0 l/m 0 min 0 min 14 W/m 6,4 km/h (2 Bft) 97,87 %
29.05.2022 21:12 11,9 C 11,1 C 7,8 C 76 % 1013,7 hPa 0,0 l/m 0 min 0 min 14 W/m 6,4 km/h (2 Bft) 95,74 %
29.05.2022 21:14 11,9 C 11,1 C 7,8 C 77 % 1013,7 hPa 0,0 l/m 0 min 0 min 12 W/m 3,2 km/h (1 Bft) 97,83 %
29.05.2022 21:16 11,9 C 11,1 C 7,8 C 77 % 1013,7 hPa 0,0 l/m 0 min 0 min 11 W/m 6,4 km/h (2 Bft) 97,87 %
29.05.2022 21:18 11,9 C 11,1 C 7,8 C 77 % 1013,7 hPa 0,0 l/m 0 min 0 min 10 W/m 9,7 km/h (2 Bft) 97,87 %
29.05.2022 21:20 11,9 C 11,1 C 7,8 C 77 % 1013,7 hPa 0,0 l/m 0 min 0 min 9 W/m 12,9 km/h (3 Bft) 97,87 %
29.05.2022 21:22 11,8 C 11,1 C 7,8 C 77 % 1013,6 hPa 0,0 l/m 0 min 0 min 7 W/m 9,7 km/h (2 Bft) 95,74 %
29.05.2022 21:24 11,8 C 11,1 C 7,8 C 77 % 1013,7 hPa 0,0 l/m 0 min 0 min 7 W/m 6,4 km/h (2 Bft) 97,87 %
29.05.2022 21:26 11,8 C 11,1 C 7,8 C 77 % 1013,7 hPa 0,0 l/m 0 min 0 min 5 W/m 9,7 km/h (2 Bft) 97,83 %
29.05.2022 21:28 11,8 C 11,1 C 7,8 C 77 % 1013,7 hPa 0,0 l/m 0 min 0 min 5 W/m 6,4 km/h (2 Bft) 97,87 %
29.05.2022 21:30 11,8 C 11,1 C 7,8 C 77 % 1013,7 hPa 0,0 l/m 0 min 0 min 5 W/m 9,7 km/h (2 Bft) 97,87 %
29.05.2022 21:32 11,8 C 11,1 C 7,8 C 77 % 1013,7 hPa 0,0 l/m 0 min 0 min 2 W/m 9,7 km/h (2 Bft) 97,87 %
29.05.2022 21:34 11,8 C 11,1 C 7,8 C 77 % 1013,7 hPa 0,0 l/m 0 min 0 min 0 W/m 3,2 km/h (1 Bft) 97,87 %
29.05.2022 21:36 11,8 C 11,1 C 7,8 C 78 % 1013,8 hPa 0,0 l/m 0 min 0 min 0 W/m 16,1 km/h (3 Bft) 95,74 %
29.05.2022 21:38 11,8 C 11,1 C 7,8 C 78 % 1013,7 hPa 0,0 l/m 0 min 0 min 0 W/m 9,7 km/h (2 Bft) 95,65 %
29.05.2022 21:40 11,8 C 11,1 C 7,8 C 78 % 1013,8 hPa 0,0 l/m 0 min 0 min 0 W/m 3,2 km/h (1 Bft) 97,87 %
29.05.2022 21:42 11,8 C 11,1 C 7,8 C 78 % 1013,8 hPa 0,0 l/m 0 min 0 min 0 W/m 6,4 km/h (2 Bft) 97,87 %
29.05.2022 21:44 11,7 C 11,1 C 7,8 C 78 % 1013,9 hPa 0,0 l/m 0 min 0 min 0 W/m 6,4 km/h (2 Bft) 95,74 %
29.05.2022 21:46 11,8 C 11,1 C 7,8 C 79 % 1013,9 hPa 0,0 l/m 0 min 0 min 0 W/m 3,2 km/h (1 Bft) 95,74 %
29.05.2022 21:48 11,7 C 11,1 C 7,8 C 79 % 1013,9 hPa 0,0 l/m 0 min 0 min 0 W/m 9,7 km/h (2 Bft) 95,74 %
29.05.2022 21:50 11,7 C 11,1 C 7,2 C 79 % 1013,9 hPa 0,0 l/m 0 min 0 min 0 W/m 12,9 km/h (3 Bft) 97,83 %
29.05.2022 21:52 11,7 C 11,1 C 7,2 C 78 % 1013,9 hPa 0,0 l/m 0 min 0 min 0 W/m 12,9 km/h (3 Bft) 95,74 %
29.05.2022 21:54 11,6 C 11,1 C 7,8 C 78 % 1013,9 hPa 0,0 l/m 0 min 0 min 0 W/m 9,7 km/h (2 Bft) 95,74 %
29.05.2022 21:56 11,6 C 10,6 C 7,2 C 78 % 1013,9 hPa 0,0 l/m 0 min 0 min 0 W/m 9,7 km/h (2 Bft) 97,87 %
29.05.2022 21:58 11,6 C 11,1 C 7,2 C 78 % 1013,9 hPa 0,0 l/m 0 min 0 min 0 W/m 3,2 km/h (1 Bft) 97,87 %
29.05.2022 22:00 11,6 C 10,6 C 7,2 C 77 % 1013,9 hPa 0,0 l/m 0 min 0 min 0 W/m 12,9 km/h (3 Bft) 95,74 %
29.05.2022 22:02 11,6 C 10,6 C 7,2 C 77 % 1013,9 hPa 0,0 l/m 0 min 0 min 0 W/m 6,4 km/h (2 Bft) 95,65 %
29.05.2022 22:04 11,5 C 10,6 C 7,2 C 77 % 1013,9 hPa 0,0 l/m 0 min 0 min 0 W/m 6,4 km/h (2 Bft) 97,87 %
29.05.2022 22:06 11,5 C 10,6 C 7,2 C 77 % 1013,9 hPa 0,0 l/m 0 min 0 min 0 W/m 12,9 km/h (3 Bft) 95,74 %
29.05.2022 22:08 11,5 C 10,6 C 7,2 C 77 % 1013,8 hPa 0,0 l/m 0 min 0 min 0 W/m 3,2 km/h (1 Bft) 97,87 %
29.05.2022 22:10 11,5 C 10,6 C 7,2 C 77 % 1013,9 hPa 0,0 l/m 0 min 0 min 0 W/m 6,4 km/h (2 Bft) 97,87 %
29.05.2022 22:12 11,4 C 10,6 C 7,2 C 77 % 1013,9 hPa 0,0 l/m 0 min 0 min 0 W/m 6,4 km/h (2 Bft) 97,87 %
29.05.2022 22:14 11,4 C 10,6 C 7,2 C 77 % 1013,9 hPa 0,0 l/m 0 min 0 min 0 W/m 12,9 km/h (3 Bft) 97,83 %
29.05.2022 22:16 11,4 C 10,6 C 7,2 C 77 % 1013,8 hPa 0,0 l/m 0 min 0 min 0 W/m 9,7 km/h (2 Bft) 93,62 %
29.05.2022 22:18 11,4 C 10,6 C 7,2 C 77 % 1013,8 hPa 0,0 l/m 0 min 0 min 0 W/m 9,7 km/h (2 Bft) 93,62 %
29.05.2022 22:20 11,4 C 10,6 C 7,2 C 77 % 1013,9 hPa 0,0 l/m 0 min 0 min 0 W/m 12,9 km/h (3 Bft) 93,62 %
29.05.2022 22:22 11,3 C 10,6 C 7,2 C 77 % 1013,9 hPa 0,0 l/m 0 min 0 min 0 W/m 6,4 km/h (2 Bft) 93,62 %
29.05.2022 22:24 11,3 C 10,6 C 7,2 C 77 % 1013,9 hPa 0,0 l/m 0 min 0 min 0 W/m 9,7 km/h (2 Bft) 93,62 %
29.05.2022 22:26 11,3 C 10,6 C 7,2 C 77 % 1013,9 hPa 0,0 l/m 0 min 0 min 0 W/m 9,7 km/h (2 Bft) 93,48 %
29.05.2022 22:28 11,3 C 10,6 C 6,7 C 78 % 1013,9 hPa 0,0 l/m 0 min 0 min 0 W/m 6,4 km/h (2 Bft) 97,87 %
29.05.2022 22:30 11,2 C 10,6 C 7,2 C 78 % 1013,9 hPa 0,0 l/m 0 min 0 min 0 W/m 3,2 km/h (1 Bft) 97,87 %
29.05.2022 22:32 11,2 C 10,6 C 7,2 C 78 % 1013,8 hPa 0,0 l/m 0 min 0 min 0 W/m 3,2 km/h (1 Bft) 97,87 %
29.05.2022 22:34 11,2 C 10,6 C 7,2 C 78 % 1013,8 hPa 0,0 l/m 0 min 0 min 0 W/m 3,2 km/h (1 Bft) 97,87 %
29.05.2022 22:36 11,2 C 10,0 C 7,2 C 78 % 1013,9 hPa 0,0 l/m 0 min 0 min 0 W/m 3,2 km/h (1 Bft) 97,83 %
29.05.2022 22:38 11,2 C 10,0 C 6,7 C 79 % 1013,9 hPa 0,0 l/m 0 min 0 min 0 W/m 0,0 km/h (0 Bft) 97,87 %
29.05.2022 22:40 11,1 C 10,0 C 6,7 C 79 % 1013,8 hPa 0,0 l/m 0 min 0 min 0 W/m 3,2 km/h (1 Bft) 95,74 %
29.05.2022 22:42 11,1 C 10,0 C 6,7 C 79 % 1013,8 hPa 0,0 l/m 0 min 0 min 0 W/m 3,2 km/h (1 Bft) 95,74 %
29.05.2022 22:44 11,1 C 10,0 C 6,7 C 79 % 1013,8 hPa 0,0 l/m 0 min 0 min 0 W/m 0,0 km/h (0 Bft) 97,87 %
29.05.2022 22:46 11,1 C 10,0 C 6,7 C 79 % 1013,8 hPa 0,0 l/m 0 min 0 min 0 W/m 0,0 km/h (0 Bft) 97,87 %
29.05.2022 22:48 11,1 C 10,0 C 6,7 C 79 % 1013,7 hPa 0,0 l/m 0 min 0 min 0 W/m 0,0 km/h (0 Bft) 95,65 %
29.05.2022 22:50 11,1 C 10,0 C 6,7 C 79 % 1013,8 hPa 0,0 l/m 0 min 0 min 0 W/m 0,0 km/h (0 Bft) 95,74 %
29.05.2022 22:52 11,1 C 10,0 C 6,7 C 80 % 1013,8 hPa 0,0 l/m 0 min 0 min 0 W/m 0,0 km/h (0 Bft) 97,87 %
29.05.2022 22:54 11,0 C 10,0 C 6,7 C 80 % 1013,8 hPa 0,0 l/m 0 min 0 min 0 W/m 3,2 km/h (1 Bft) 93,62 %
29.05.2022 22:56 11,0 C 10,0 C 6,7 C 80 % 1013,8 hPa 0,0 l/m 0 min 0 min 0 W/m 0,0 km/h (0 Bft) 93,62 %
29.05.2022 22:58 10,9 C 10,0 C 6,7 C 80 % 1013,7 hPa 0,0 l/m 0 min 0 min 0 W/m 3,2 km/h (1 Bft) 95,74 %
29.05.2022 23:00 10,9 C 10,0 C 6,7 C 80 % 1013,8 hPa 0,0 l/m 0 min 0 min 0 W/m 0,0 km/h (0 Bft) 97,83 %
29.05.2022 23:02 10,9 C 10,0 C 6,7 C 80 % 1013,7 hPa 0,0 l/m 0 min 0 min 0 W/m 0,0 km/h (0 Bft) 95,74 %
29.05.2022 23:04 10,9 C 10,0 C 6,7 C 81 % 1013,7 hPa 0,0 l/m 0 min 0 min 0 W/m 0,0 km/h (0 Bft) 97,92 %
29.05.2022 23:06 10,9 C 10,0 C 6,7 C 81 % 1013,7 hPa 0,0 l/m 0 min 0 min 0 W/m 0,0 km/h (0 Bft) 97,87 %
29.05.2022 23:08 10,9 C 10,0 C 6,7 C 81 % 1013,7 hPa 0,0 l/m 0 min 0 min 0 W/m 0,0 km/h (0 Bft) 97,87 %
29.05.2022 23:10 10,9 C 10,0 C 6,7 C 81 % 1013,8 hPa 0,0 l/m 0 min 0 min 0 W/m 3,2 km/h (1 Bft) 95,65 %
29.05.2022 23:12 10,9 C 10,0 C 6,7 C 81 % 1013,7 hPa 0,0 l/m 0 min 0 min 0 W/m 3,2 km/h (1 Bft) 97,87 %
29.05.2022 23:14 10,9 C 10,0 C 6,7 C 82 % 1013,7 hPa 0,0 l/m 0 min 0 min 0 W/m 0,0 km/h (0 Bft) 97,87 %
29.05.2022 23:16 10,8 C 10,0 C 6,7 C 82 % 1013,7 hPa 0,0 l/m 0 min 0 min 0 W/m 0,0 km/h (0 Bft) 97,87 %
29.05.2022 23:18 10,9 C 10,0 C 6,7 C 82 % 1013,7 hPa 0,0 l/m 0 min 0 min 0 W/m 0,0 km/h (0 Bft) 95,74 %
29.05.2022 23:20 10,8 C 10,0 C 6,7 C 82 % 1013,7 hPa 0,0 l/m 0 min 0 min 0 W/m 3,2 km/h (1 Bft) 95,74 %
29.05.2022 23:22 10,8 C 10,0 C 6,7 C 82 % 1013,7 hPa 0,0 l/m 0 min 0 min 0 W/m 3,2 km/h (1 Bft) 97,83 %
29.05.2022 23:24 10,8 C 10,0 C 6,7 C 82 % 1013,7 hPa 0,0 l/m 0 min 0 min 0 W/m 3,2 km/h (1 Bft) 100,00 %
29.05.2022 23:26 10,8 C 10,0 C 6,7 C 82 % 1013,6 hPa 0,0 l/m 0 min 0 min 0 W/m 0,0 km/h (0 Bft) 100,00 %
29.05.2022 23:28 10,8 C 10,0 C 6,7 C 82 % 1013,6 hPa 0,0 l/m 0 min 0 min 0 W/m 0,0 km/h (0 Bft) 97,87 %
29.05.2022 23:30 10,8 C 10,0 C 6,7 C 82 % 1013,7 hPa 0,0 l/m 0 min 0 min 0 W/m 0,0 km/h (0 Bft) 100,00 %
29.05.2022 23:32 10,8 C 10,0 C 6,7 C 82 % 1013,7 hPa 0,0 l/m 0 min 0 min 0 W/m 6,4 km/h (2 Bft) 100,00 %
29.05.2022 23:34 10,8 C 10,0 C 6,7 C 82 % 1013,7 hPa 0,0 l/m 0 min 0 min 0 W/m 9,7 km/h (2 Bft) 100,00 %
29.05.2022 23:36 10,8 C 10,0 C 6,7 C 82 % 1013,6 hPa 0,0 l/m 0 min 0 min 0 W/m 3,2 km/h (1 Bft) 78,72 %
29.05.2022 23:38 10,8 C 10,0 C 6,7 C 82 % 1013,6 hPa 0,0 l/m 0 min 0 min 0 W/m 3,2 km/h (1 Bft) 74,42 %
29.05.2022 23:40 10,8 C 10,0 C 6,7 C 82 % 1013,6 hPa 0,0 l/m 0 min 0 min 0 W/m 3,2 km/h (1 Bft) 100,00 %
29.05.2022 23:42 10,8 C 10,0 C 6,7 C 82 % 1013,6 hPa 0,0 l/m 0 min 0 min 0 W/m 12,9 km/h (3 Bft) 95,74 %
29.05.2022 23:44 10,8 C 10,0 C 6,7 C 82 % 1013,7 hPa 0,0 l/m 0 min 0 min 0 W/m 9,7 km/h (2 Bft) 100,00 %
29.05.2022 23:46 10,8 C 10,0 C 6,7 C 82 % 1013,7 hPa 0,0 l/m 0 min 0 min 0 W/m 6,4 km/h (2 Bft) 100,00 %
29.05.2022 23:48 10,8 C 10,0 C 6,7 C 82 % 1013,7 hPa 0,0 l/m 0 min 0 min 0 W/m 3,2 km/h (1 Bft) 100,00 %
29.05.2022 23:50 10,8 C 10,0 C 6,7 C 82 % 1013,7 hPa 0,0 l/m 0 min 0 min 0 W/m 6,4 km/h (2 Bft) 100,00 %
29.05.2022 23:52 10,8 C 10,0 C 6,7 C 82 % 1013,7 hPa 0,0 l/m 0 min 0 min 0 W/m 6,4 km/h (2 Bft) 97,87 %
29.05.2022 23:54 10,8 C 10,0 C 6,7 C 82 % 1013,7 hPa 0,0 l/m 0 min 0 min 0 W/m 9,7 km/h (2 Bft) 100,00 %
29.05.2022 23:56 10,8 C 10,0 C 6,7 C 82 % 1013,7 hPa 0,0 l/m 0 min 0 min 0 W/m 6,4 km/h (2 Bft) 97,87 %
29.05.2022 23:58 10,8 C 10,0 C 6,7 C 82 % 1013,7 hPa 0,0 l/m 0 min 0 min 0 W/m 6,4 km/h (2 Bft) 100,00 %
_ Min-Zeit 05:02 03:20 03:24 16:50 18:54 - - - - 00:54 05:12
Minimum _ 7,8 C 6,7 C 3,9 C 67 % 1013,4 hPa - - - - 0,0 km/h (0 Bft) 63,04 %
_ Max-Zeit 14:48 14:36 13:20 08:34 00:00 13:34 12:08 07:02 13:20 15:44 00:40
Maximum _ 15,7 C 18,9 C 17,2 C 94 % 1019,1 hPa 1,2 l/m 4 min 2 min 1184 W/m 32,2 km/h
N-NW (5 Bft)
100,00 %
Durchschnitt _ 11,3 C 11,3 C 7,6 C 83 % 1015,5 hPa #2,8 l/m #4:34 h #1:32 h 257 W/m 8,3 km/h (2 Bft) 97,39 %
© 2022 W. Hausmann